Wetterdaten: Freitag, 25.12.2020
Datum Zeit Temp. Aussen Temp. o. S. Temp +5cm Feuchte Auss Luftdruck Regen Sonnenschein Regendauer Solar Windben Empfang
25.12.2020 00:00 4,2 C 3,3 C 2,7 C 96 % 1017,8 hPa 0,0 l/m 0 min 0 min 0 W/m 0,0 km/h (0 Bft) 100,00 %
25.12.2020 00:02 4,2 C 3,3 C 2,7 C 96 % 1017,9 hPa 0,0 l/m 0 min 0 min 0 W/m 0,0 km/h (0 Bft) 100,00 %
25.12.2020 00:04 4,2 C 3,3 C 2,7 C 96 % 1017,9 hPa 0,0 l/m 0 min 0 min 0 W/m 3,2 km/h (1 Bft) 100,00 %
25.12.2020 00:08 4,1 C 3,3 C 2,7 C 96 % 1018,0 hPa 0,0 l/m 0 min 0 min 0 W/m 0,0 km/h (0 Bft) 97,85 %
25.12.2020 00:10 4,1 C 3,3 C 2,7 C 96 % 1018,0 hPa 0,0 l/m 0 min 0 min 0 W/m 0,0 km/h (0 Bft) 100,00 %
25.12.2020 00:12 4,1 C 3,3 C 2,7 C 96 % 1018,0 hPa 0,0 l/m 0 min 0 min 0 W/m 6,4 km/h (2 Bft) 97,87 %
25.12.2020 00:14 4,1 C 3,3 C 2,7 C 96 % 1018,0 hPa 0,0 l/m 0 min 0 min 0 W/m 0,0 km/h (0 Bft) 100,00 %
25.12.2020 00:16 4,1 C 3,3 C 2,7 C 96 % 1018,1 hPa 0,0 l/m 0 min 0 min 0 W/m 0,0 km/h (0 Bft) 100,00 %
25.12.2020 00:18 4,2 C 3,9 C 2,7 C 96 % 1018,2 hPa 0,0 l/m 0 min 0 min 0 W/m 0,0 km/h (0 Bft) 100,00 %
25.12.2020 00:20 4,2 C 3,9 C 3,3 C 96 % 1018,2 hPa 0,0 l/m 0 min 0 min 0 W/m 3,2 km/h (1 Bft) 100,00 %
25.12.2020 00:22 4,1 C 3,9 C 3,3 C 96 % 1018,2 hPa 0,0 l/m 0 min 0 min 0 W/m 6,4 km/h (2 Bft) 100,00 %
25.12.2020 00:24 4,1 C 3,3 C 2,7 C 96 % 1018,2 hPa 0,0 l/m 0 min 0 min 0 W/m 3,2 km/h (1 Bft) 100,00 %
25.12.2020 00:26 4,1 C 3,3 C 3,3 C 96 % 1018,3 hPa 0,0 l/m 0 min 0 min 0 W/m 0,0 km/h (0 Bft) 100,00 %
25.12.2020 00:28 4,1 C 3,9 C 3,3 C 96 % 1018,3 hPa 0,0 l/m 0 min 0 min 0 W/m 9,7 km/h (2 Bft) 100,00 %
25.12.2020 00:30 4,2 C 3,9 C 3,3 C 96 % 1018,3 hPa 0,0 l/m 0 min 0 min 0 W/m 3,2 km/h (1 Bft) 100,00 %
25.12.2020 00:32 4,2 C 3,9 C 3,3 C 96 % 1018,3 hPa 0,0 l/m 0 min 0 min 0 W/m 9,7 km/h (2 Bft) 97,87 %
25.12.2020 00:34 4,2 C 3,9 C 3,3 C 96 % 1018,3 hPa 0,0 l/m 0 min 0 min 0 W/m 0,0 km/h (0 Bft) 100,00 %
25.12.2020 00:36 4,2 C 3,9 C 3,3 C 96 % 1018,3 hPa 0,0 l/m 0 min 0 min 0 W/m 6,4 km/h (2 Bft) 100,00 %
25.12.2020 00:38 4,2 C 3,9 C 3,3 C 96 % 1018,3 hPa 0,0 l/m 0 min 0 min 0 W/m 0,0 km/h (0 Bft) 100,00 %
25.12.2020 00:40 4,2 C 3,9 C 3,3 C 96 % 1018,3 hPa 0,0 l/m 0 min 0 min 0 W/m 6,4 km/h (2 Bft) 100,00 %
25.12.2020 00:42 4,2 C 3,9 C 3,3 C 96 % 1018,4 hPa 0,0 l/m 0 min 0 min 0 W/m 0,0 km/h (0 Bft) 100,00 %
25.12.2020 00:44 4,2 C 3,9 C 3,3 C 96 % 1018,4 hPa 0,0 l/m 0 min 0 min 0 W/m 0,0 km/h (0 Bft) 100,00 %
25.12.2020 00:46 4,2 C 3,9 C 3,3 C 96 % 1018,4 hPa 0,0 l/m 0 min 0 min 0 W/m 0,0 km/h (0 Bft) 100,00 %
25.12.2020 00:48 4,2 C 3,9 C 3,3 C 96 % 1018,4 hPa 0,0 l/m 0 min 0 min 0 W/m 0,0 km/h (0 Bft) 100,00 %
25.12.2020 00:50 4,2 C 3,9 C 3,3 C 96 % 1018,5 hPa 0,0 l/m 0 min 0 min 0 W/m 3,2 km/h (1 Bft) 97,87 %
25.12.2020 00:52 4,2 C 3,9 C 3,3 C 96 % 1018,5 hPa 0,0 l/m 0 min 0 min 0 W/m 3,2 km/h (1 Bft) 100,00 %
25.12.2020 00:54 4,2 C 3,9 C 3,3 C 96 % 1018,6 hPa 0,0 l/m 0 min 0 min 0 W/m 0,0 km/h (0 Bft) 100,00 %
25.12.2020 00:56 4,2 C 3,9 C 3,3 C 96 % 1018,6 hPa 0,0 l/m 0 min 0 min 0 W/m 3,2 km/h (1 Bft) 100,00 %
25.12.2020 00:58 4,2 C 3,9 C 3,3 C 96 % 1018,6 hPa 0,0 l/m 0 min 0 min 0 W/m 0,0 km/h (0 Bft) 95,74 %
25.12.2020 01:00 4,2 C 3,9 C 3,3 C 96 % 1018,7 hPa 0,0 l/m 0 min 0 min 0 W/m 3,2 km/h (1 Bft) 100,00 %
25.12.2020 01:02 4,2 C 3,9 C 3,3 C 96 % 1018,7 hPa 0,0 l/m 0 min 0 min 0 W/m 0,0 km/h (0 Bft) 100,00 %
25.12.2020 01:04 4,2 C 3,9 C 3,3 C 96 % 1018,7 hPa 0,0 l/m 0 min 0 min 0 W/m 3,2 km/h (1 Bft) 95,74 %
25.12.2020 01:06 4,2 C 3,9 C 3,3 C 96 % 1018,6 hPa 0,0 l/m 0 min 0 min 0 W/m 22,5 km/h (4 Bft) 100,00 %
25.12.2020 01:08 4,2 C 3,9 C 3,3 C 96 % 1018,6 hPa 0,0 l/m 0 min 0 min 0 W/m 9,7 km/h (2 Bft) 97,87 %
25.12.2020 01:10 4,2 C 3,9 C 3,3 C 96 % 1018,7 hPa 0,0 l/m 0 min 0 min 0 W/m 3,2 km/h (1 Bft) 95,65 %
25.12.2020 01:12 4,2 C 3,9 C 3,3 C 96 % 1018,7 hPa 0,0 l/m 0 min 0 min 0 W/m 19,3 km/h (3 Bft) 95,74 %
25.12.2020 01:14 4,2 C 3,9 C 3,3 C 96 % 1018,7 hPa 0,0 l/m 0 min 0 min 0 W/m 0,0 km/h (0 Bft) 91,49 %
25.12.2020 01:16 4,2 C 3,9 C 3,3 C 96 % 1018,7 hPa 0,0 l/m 0 min 0 min 0 W/m 0,0 km/h (0 Bft) 95,74 %
25.12.2020 01:18 4,2 C 3,9 C 3,3 C 96 % 1018,7 hPa 0,0 l/m 0 min 0 min 0 W/m 0,0 km/h (0 Bft) 95,74 %
25.12.2020 01:20 4,1 C 3,9 C 3,3 C 96 % 1018,7 hPa 0,0 l/m 0 min 0 min 0 W/m 0,0 km/h (0 Bft) 95,65 %
25.12.2020 01:22 4,2 C 3,9 C 3,3 C 96 % 1018,8 hPa 0,0 l/m 0 min 0 min 0 W/m 0,0 km/h (0 Bft) 93,62 %
25.12.2020 01:24 4,2 C 3,9 C 3,3 C 96 % 1018,8 hPa 0,0 l/m 0 min 0 min 0 W/m 3,2 km/h (1 Bft) 93,62 %
25.12.2020 01:26 4,2 C 3,9 C 3,3 C 96 % 1018,8 hPa 0,0 l/m 0 min 0 min 0 W/m 0,0 km/h (0 Bft) 95,74 %
25.12.2020 01:28 4,2 C 3,9 C 3,3 C 96 % 1018,7 hPa 0,0 l/m 0 min 0 min 0 W/m 9,7 km/h (2 Bft) 95,74 %
25.12.2020 01:30 4,1 C 3,9 C 3,3 C 96 % 1018,8 hPa 0,0 l/m 0 min 0 min 0 W/m 16,1 km/h (3 Bft) 93,62 %
25.12.2020 01:32 4,1 C 3,9 C 3,3 C 96 % 1018,8 hPa 0,0 l/m 0 min 0 min 0 W/m 0,0 km/h (0 Bft) 95,65 %
25.12.2020 01:34 4,1 C 3,9 C 3,3 C 96 % 1018,9 hPa 0,0 l/m 0 min 0 min 0 W/m 0,0 km/h (0 Bft) 95,74 %
25.12.2020 01:36 4,1 C 3,9 C 3,3 C 96 % 1018,8 hPa 0,0 l/m 0 min 0 min 0 W/m 0,0 km/h (0 Bft) 93,62 %
25.12.2020 01:38 4,1 C 3,9 C 3,3 C 96 % 1018,9 hPa 0,0 l/m 0 min 0 min 0 W/m 0,0 km/h (0 Bft) 93,62 %
25.12.2020 01:40 4,1 C 3,9 C 3,3 C 96 % 1018,9 hPa 0,0 l/m 0 min 0 min 0 W/m 0,0 km/h (0 Bft) 93,62 %
25.12.2020 01:42 4,1 C 3,9 C 3,3 C 96 % 1018,9 hPa 0,0 l/m 0 min 0 min 0 W/m 3,2 km/h (1 Bft) 95,74 %
25.12.2020 01:44 4,1 C 3,9 C 3,3 C 96 % 1019,0 hPa 0,0 l/m 0 min 0 min 0 W/m 29,0 km/h (5 Bft) 93,48 %
25.12.2020 01:46 4,1 C 3,9 C 3,3 C 96 % 1018,9 hPa 0,0 l/m 0 min 0 min 0 W/m 16,1 km/h (3 Bft) 89,36 %
25.12.2020 01:48 4,1 C 3,9 C 3,3 C 96 % 1019,0 hPa 0,0 l/m 0 min 0 min 0 W/m 0,0 km/h (0 Bft) 93,62 %
25.12.2020 01:50 4,1 C 3,3 C 3,3 C 96 % 1018,9 hPa 0,0 l/m 0 min 0 min 0 W/m 0,0 km/h (0 Bft) 93,62 %
25.12.2020 01:52 4,1 C 3,3 C 3,3 C 96 % 1018,9 hPa 0,0 l/m 0 min 0 min 0 W/m 3,2 km/h (1 Bft) 93,62 %
25.12.2020 01:54 4,0 C 3,3 C 3,3 C 96 % 1018,9 hPa 0,0 l/m 0 min 0 min 0 W/m 0,0 km/h (0 Bft) 93,62 %
25.12.2020 01:56 4,0 C 3,3 C 3,3 C 95 % 1018,9 hPa 0,0 l/m 0 min 0 min 0 W/m 0,0 km/h (0 Bft) 91,30 %
25.12.2020 01:58 4,0 C 3,3 C 3,3 C 95 % 1019,0 hPa 0,0 l/m 0 min 0 min 0 W/m 0,0 km/h (0 Bft) 97,56 %
25.12.2020 02:00 4,0 C 3,3 C 3,3 C 95 % 1019,0 hPa 0,0 l/m 0 min 0 min 0 W/m 0,0 km/h (0 Bft) 95,65 %
25.12.2020 02:02 4,0 C 3,3 C 2,7 C 95 % 1019,1 hPa 0,0 l/m 0 min 0 min 0 W/m 0,0 km/h (0 Bft) 97,87 %
25.12.2020 02:04 4,0 C 3,3 C 2,7 C 95 % 1019,0 hPa 0,0 l/m 0 min 0 min 0 W/m 0,0 km/h (0 Bft) 97,87 %
25.12.2020 02:06 3,9 C 3,3 C 2,7 C 95 % 1019,1 hPa 0,0 l/m 0 min 0 min 0 W/m 0,0 km/h (0 Bft) 97,87 %
25.12.2020 02:08 3,9 C 3,3 C 2,7 C 95 % 1019,0 hPa 0,0 l/m 0 min 0 min 0 W/m 3,2 km/h (1 Bft) 95,74 %
25.12.2020 02:10 3,9 C 3,3 C 3,3 C 95 % 1019,1 hPa 0,0 l/m 0 min 0 min 0 W/m 0,0 km/h (0 Bft) 97,87 %
25.12.2020 02:12 3,9 C 3,3 C 3,3 C 95 % 1019,2 hPa 0,0 l/m 0 min 0 min 0 W/m 19,3 km/h (3 Bft) 93,62 %
25.12.2020 02:14 3,9 C 3,3 C 3,3 C 95 % 1019,2 hPa 0,0 l/m 0 min 0 min 0 W/m 0,0 km/h (0 Bft) 97,83 %
25.12.2020 02:16 3,9 C 3,3 C 3,3 C 95 % 1019,3 hPa 0,0 l/m 0 min 0 min 0 W/m 3,2 km/h (1 Bft) 95,74 %
25.12.2020 02:18 3,9 C 3,3 C 2,7 C 95 % 1019,3 hPa 0,0 l/m 0 min 0 min 0 W/m 0,0 km/h (0 Bft) 97,87 %
25.12.2020 02:20 3,9 C 3,3 C 2,7 C 95 % 1019,4 hPa 0,0 l/m 0 min 0 min 0 W/m 0,0 km/h (0 Bft) 97,87 %
25.12.2020 02:22 3,9 C 3,3 C 2,7 C 95 % 1019,4 hPa 0,0 l/m 0 min 0 min 0 W/m 0,0 km/h (0 Bft) 97,87 %
25.12.2020 02:24 3,9 C 3,3 C 2,7 C 95 % 1019,4 hPa 0,0 l/m 0 min 0 min 0 W/m 0,0 km/h (0 Bft) 97,83 %
25.12.2020 02:26 3,9 C 3,3 C 2,7 C 95 % 1019,4 hPa 0,0 l/m 0 min 0 min 0 W/m 3,2 km/h (1 Bft) 97,87 %
25.12.2020 02:28 3,9 C 3,3 C 2,7 C 95 % 1019,4 hPa 0,0 l/m 0 min 0 min 0 W/m 19,3 km/h (3 Bft) 97,87 %
25.12.2020 02:30 3,9 C 3,3 C 2,7 C 95 % 1019,6 hPa 0,0 l/m 0 min 0 min 0 W/m 0,0 km/h (0 Bft) 97,87 %
25.12.2020 02:32 3,8 C 3,3 C 2,7 C 95 % 1019,6 hPa 0,0 l/m 0 min 0 min 0 W/m 6,4 km/h (2 Bft) 96,23 %
25.12.2020 02:34 3,8 C 3,3 C 2,7 C 95 % 1019,6 hPa 0,0 l/m 0 min 0 min 0 W/m 0,0 km/h (0 Bft) 100,00 %
25.12.2020 02:36 3,8 C 3,3 C 2,7 C 95 % 1019,6 hPa 0,0 l/m 0 min 0 min 0 W/m 3,2 km/h (1 Bft) 97,87 %
25.12.2020 02:38 3,8 C 3,3 C 2,7 C 95 % 1019,6 hPa 0,0 l/m 0 min 0 min 0 W/m 22,5 km/h (4 Bft) 97,87 %
25.12.2020 02:40 3,8 C 3,3 C 2,7 C 95 % 1019,7 hPa 0,0 l/m 0 min 0 min 0 W/m 16,1 km/h (3 Bft) 97,87 %
25.12.2020 02:42 3,8 C 3,3 C 2,7 C 95 % 1019,7 hPa 0,0 l/m 0 min 0 min 0 W/m 16,1 km/h (3 Bft) 93,62 %
25.12.2020 02:44 3,8 C 3,3 C 2,7 C 94 % 1019,7 hPa 0,0 l/m 0 min 0 min 0 W/m 16,1 km/h (3 Bft) 97,96 %
25.12.2020 02:46 3,8 C 3,3 C 2,7 C 94 % 1019,8 hPa 0,0 l/m 0 min 0 min 0 W/m 12,9 km/h (3 Bft) 97,37 %
25.12.2020 02:48 3,8 C 3,3 C 2,7 C 94 % 1019,8 hPa 0,0 l/m 0 min 0 min 0 W/m 0,0 km/h (0 Bft) 97,83 %
25.12.2020 02:50 3,8 C 3,3 C 2,7 C 94 % 1019,9 hPa 0,0 l/m 0 min 0 min 0 W/m 0,0 km/h (0 Bft) 97,87 %
25.12.2020 02:52 3,7 C 3,3 C 2,7 C 94 % 1019,8 hPa 0,0 l/m 0 min 0 min 0 W/m 12,9 km/h (3 Bft) 96,30 %
25.12.2020 02:54 3,7 C 3,3 C 2,7 C 94 % 1019,9 hPa 0,0 l/m 0 min 0 min 0 W/m 6,4 km/h (2 Bft) 93,88 %
25.12.2020 02:56 3,7 C 3,3 C 2,7 C 94 % 1019,9 hPa 0,0 l/m 0 min 0 min 0 W/m 3,2 km/h (1 Bft) 100,00 %
25.12.2020 02:58 3,7 C 3,3 C 2,7 C 94 % 1019,9 hPa 0,0 l/m 0 min 0 min 0 W/m 12,9 km/h (3 Bft) 97,87 %
25.12.2020 03:00 3,6 C 3,3 C 2,7 C 94 % 1020,0 hPa 0,0 l/m 0 min 0 min 0 W/m 0,0 km/h (0 Bft) 96,30 %
25.12.2020 03:02 3,6 C 3,3 C 2,7 C 94 % 1020,0 hPa 0,0 l/m 0 min 0 min 0 W/m 0,0 km/h (0 Bft) 100,00 %
25.12.2020 03:04 3,6 C 3,3 C 2,7 C 94 % 1020,0 hPa 0,0 l/m 0 min 0 min 0 W/m 0,0 km/h (0 Bft) 95,83 %
25.12.2020 03:06 3,6 C 3,3 C 2,7 C 94 % 1020,1 hPa 0,0 l/m 0 min 0 min 0 W/m 6,4 km/h (2 Bft) 97,87 %
25.12.2020 03:08 3,6 C 3,3 C 2,7 C 94 % 1020,1 hPa 0,0 l/m 0 min 0 min 0 W/m 22,5 km/h (4 Bft) 98,15 %
25.12.2020 03:10 3,6 C 3,3 C 2,7 C 94 % 1020,1 hPa 0,0 l/m 0 min 0 min 0 W/m 16,1 km/h (3 Bft) 97,37 %
25.12.2020 03:12 3,6 C 3,3 C 2,7 C 94 % 1020,1 hPa 0,0 l/m 0 min 0 min 0 W/m 0,0 km/h (0 Bft) 97,92 %
25.12.2020 03:14 3,6 C 3,3 C 2,7 C 94 % 1020,1 hPa 0,0 l/m 0 min 0 min 0 W/m 0,0 km/h (0 Bft) 97,87 %
25.12.2020 03:16 3,6 C 3,3 C 2,7 C 94 % 1020,1 hPa 0,0 l/m 0 min 0 min 0 W/m 0,0 km/h (0 Bft) 98,15 %
25.12.2020 03:18 3,6 C 3,3 C 2,7 C 94 % 1020,2 hPa 0,0 l/m 0 min 0 min 0 W/m 0,0 km/h (0 Bft) 97,96 %
25.12.2020 03:20 3,6 C 3,3 C 2,7 C 94 % 1020,1 hPa 0,0 l/m 0 min 0 min 0 W/m 0,0 km/h (0 Bft) 97,37 %
25.12.2020 03:22 3,6 C 3,3 C 2,7 C 94 % 1020,3 hPa 0,0 l/m 0 min 0 min 0 W/m 25,7 km/h (4 Bft) 95,65 %
25.12.2020 03:24 3,6 C 3,3 C 2,7 C 94 % 1020,2 hPa 0,0 l/m 0 min 0 min 0 W/m 19,3 km/h (3 Bft) 98,15 %
25.12.2020 03:26 3,6 C 3,3 C 2,7 C 94 % 1020,3 hPa 0,0 l/m 0 min 0 min 0 W/m 0,0 km/h (0 Bft) 98,00 %
25.12.2020 03:28 3,6 C 2,8 C 2,7 C 94 % 1020,3 hPa 0,0 l/m 0 min 0 min 0 W/m 0,0 km/h (0 Bft) 97,87 %
25.12.2020 03:30 3,6 C 3,3 C 2,7 C 94 % 1020,3 hPa 0,0 l/m 0 min 0 min 0 W/m 3,2 km/h (1 Bft) 97,30 %
25.12.2020 03:32 3,6 C 2,8 C 2,7 C 94 % 1020,3 hPa 0,0 l/m 0 min 0 min 0 W/m 0,0 km/h (0 Bft) 97,87 %
25.12.2020 03:34 3,6 C 2,8 C 2,7 C 94 % 1020,4 hPa 0,0 l/m 0 min 0 min 0 W/m 3,2 km/h (1 Bft) 96,23 %
25.12.2020 03:36 3,6 C 2,8 C 2,7 C 94 % 1020,4 hPa 0,0 l/m 0 min 0 min 0 W/m 0,0 km/h (0 Bft) 98,00 %
25.12.2020 03:38 3,6 C 2,8 C 2,7 C 94 % 1020,4 hPa 0,0 l/m 0 min 0 min 0 W/m 22,5 km/h (4 Bft) 97,30 %
25.12.2020 03:40 3,5 C 2,8 C 2,7 C 94 % 1020,5 hPa 0,0 l/m 0 min 0 min 0 W/m 16,1 km/h (3 Bft) 97,87 %
25.12.2020 03:42 3,5 C 2,8 C 2,7 C 93 % 1020,5 hPa 0,0 l/m 0 min 0 min 0 W/m 0,0 km/h (0 Bft) 97,87 %
25.12.2020 03:44 3,5 C 2,8 C 2,7 C 93 % 1020,5 hPa 0,0 l/m 0 min 0 min 0 W/m 3,2 km/h (1 Bft) 94,34 %
25.12.2020 03:46 3,5 C 2,8 C 2,7 C 93 % 1020,5 hPa 0,0 l/m 0 min 0 min 0 W/m 0,0 km/h (0 Bft) 98,00 %
25.12.2020 03:48 3,5 C 2,8 C 2,2 C 94 % 1020,5 hPa 0,0 l/m 0 min 0 min 0 W/m 0,0 km/h (0 Bft) 100,00 %
25.12.2020 03:50 3,5 C 2,8 C 2,2 C 94 % 1020,6 hPa 0,0 l/m 0 min 0 min 0 W/m 0,0 km/h (0 Bft) 97,87 %
25.12.2020 03:52 3,5 C 2,8 C 2,2 C 94 % 1020,6 hPa 0,0 l/m 0 min 0 min 0 W/m 0,0 km/h (0 Bft) 92,45 %
25.12.2020 03:54 3,5 C 2,8 C 2,2 C 93 % 1020,6 hPa 0,0 l/m 0 min 0 min 0 W/m 0,0 km/h (0 Bft) 96,00 %
25.12.2020 03:56 3,5 C 2,8 C 2,2 C 93 % 1020,7 hPa 0,0 l/m 0 min 0 min 0 W/m 0,0 km/h (0 Bft) 94,59 %
25.12.2020 03:58 3,4 C 2,8 C 2,2 C 93 % 1020,7 hPa 0,0 l/m 0 min 0 min 0 W/m 0,0 km/h (0 Bft) 95,74 %
25.12.2020 04:00 3,4 C 2,2 C 2,2 C 93 % 1020,8 hPa 0,0 l/m 0 min 0 min 0 W/m 0,0 km/h (0 Bft) 95,74 %
25.12.2020 04:02 3,4 C 2,2 C 2,2 C 93 % 1020,8 hPa 0,0 l/m 0 min 0 min 0 W/m 0,0 km/h (0 Bft) 92,59 %
25.12.2020 04:04 3,4 C 2,2 C 2,2 C 93 % 1020,7 hPa 0,0 l/m 0 min 0 min 0 W/m 0,0 km/h (0 Bft) 91,84 %
25.12.2020 04:06 3,4 C 2,2 C 2,2 C 93 % 1020,8 hPa 0,0 l/m 0 min 0 min 0 W/m 0,0 km/h (0 Bft) 92,11 %
25.12.2020 04:08 3,3 C 2,2 C 2,2 C 93 % 1020,8 hPa 0,0 l/m 0 min 0 min 0 W/m 0,0 km/h (0 Bft) 93,48 %
25.12.2020 04:10 3,3 C 2,2 C 2,2 C 93 % 1020,9 hPa 0,0 l/m 0 min 0 min 0 W/m 3,2 km/h (1 Bft) 93,62 %
25.12.2020 04:12 3,3 C 2,2 C 2,2 C 93 % 1020,9 hPa 0,0 l/m 0 min 0 min 0 W/m 0,0 km/h (0 Bft) 94,44 %
25.12.2020 04:14 3,3 C 2,2 C 2,2 C 93 % 1020,9 hPa 0,0 l/m 0 min 0 min 0 W/m 0,0 km/h (0 Bft) 92,00 %
25.12.2020 04:16 3,2 C 2,2 C 1,6 C 93 % 1020,9 hPa 0,0 l/m 0 min 0 min 0 W/m 0,0 km/h (0 Bft) 94,59 %
25.12.2020 04:18 3,1 C 2,2 C 1,6 C 93 % 1020,9 hPa 0,0 l/m 0 min 0 min 0 W/m 0,0 km/h (0 Bft) 91,49 %
25.12.2020 04:20 3,1 C 2,2 C 1,6 C 93 % 1020,9 hPa 0,0 l/m 0 min 0 min 0 W/m 0,0 km/h (0 Bft) 94,34 %
25.12.2020 04:22 3,1 C 2,2 C 1,6 C 93 % 1020,9 hPa 0,0 l/m 0 min 0 min 0 W/m 3,2 km/h (1 Bft) 91,49 %
25.12.2020 04:24 3,1 C 2,2 C 1,6 C 93 % 1020,9 hPa 0,0 l/m 0 min 0 min 0 W/m 16,1 km/h (3 Bft) 94,00 %
25.12.2020 04:26 3,0 C 2,2 C 1,6 C 93 % 1020,9 hPa 0,0 l/m 0 min 0 min 0 W/m 0,0 km/h (0 Bft) 91,89 %
25.12.2020 04:28 3,0 C 2,2 C 1,6 C 94 % 1021,0 hPa 0,0 l/m 0 min 0 min 0 W/m 0,0 km/h (0 Bft) 93,62 %
25.12.2020 04:30 3,0 C 2,2 C 1,6 C 94 % 1021,0 hPa 0,0 l/m 0 min 0 min 0 W/m 0,0 km/h (0 Bft) 91,49 %
25.12.2020 04:32 3,0 C 2,2 C 1,6 C 94 % 1021,1 hPa 0,0 l/m 0 min 0 min 0 W/m 0,0 km/h (0 Bft) 85,19 %
25.12.2020 04:34 2,9 C 2,2 C 1,6 C 93 % 1021,1 hPa 0,0 l/m 0 min 0 min 0 W/m 0,0 km/h (0 Bft) 97,37 %
25.12.2020 04:36 2,9 C 2,2 C 1,6 C 94 % 1021,1 hPa 0,0 l/m 0 min 0 min 0 W/m 0,0 km/h (0 Bft) 85,42 %
25.12.2020 04:38 2,9 C 2,2 C 1,6 C 94 % 1021,1 hPa 0,0 l/m 0 min 0 min 0 W/m 0,0 km/h (0 Bft) 95,74 %
25.12.2020 04:40 2,9 C 1,7 C 1,6 C 94 % 1021,0 hPa 0,0 l/m 0 min 0 min 0 W/m 0,0 km/h (0 Bft) 93,62 %
25.12.2020 04:42 2,8 C 1,7 C 1,6 C 94 % 1021,1 hPa 0,0 l/m 0 min 0 min 0 W/m 0,0 km/h (0 Bft) 92,45 %
25.12.2020 04:44 2,8 C 1,7 C 1,6 C 94 % 1021,1 hPa 0,0 l/m 0 min 0 min 0 W/m 0,0 km/h (0 Bft) 96,00 %
25.12.2020 04:46 2,8 C 1,7 C 1,6 C 94 % 1021,1 hPa 0,0 l/m 0 min 0 min 0 W/m 0,0 km/h (0 Bft) 93,62 %
25.12.2020 04:48 2,8 C 1,7 C 1,6 C 94 % 1021,1 hPa 0,0 l/m 0 min 0 min 0 W/m 0,0 km/h (0 Bft) 94,59 %
25.12.2020 04:50 2,7 C 1,7 C 1,6 C 94 % 1021,1 hPa 0,0 l/m 0 min 0 min 0 W/m 3,2 km/h (1 Bft) 95,74 %
25.12.2020 04:52 2,7 C 1,7 C 1,6 C 94 % 1021,2 hPa 0,0 l/m 0 min 0 min 0 W/m 12,9 km/h (3 Bft) 93,62 %
25.12.2020 04:54 2,6 C 1,7 C 1,6 C 94 % 1021,2 hPa 0,0 l/m 0 min 0 min 0 W/m 0,0 km/h (0 Bft) 96,23 %
25.12.2020 04:56 2,6 C 1,7 C 1,1 C 94 % 1021,3 hPa 0,0 l/m 0 min 0 min 0 W/m 16,1 km/h (3 Bft) 97,87 %
25.12.2020 04:58 2,6 C 1,7 C 1,1 C 94 % 1021,3 hPa 0,0 l/m 0 min 0 min 0 W/m 0,0 km/h (0 Bft) 97,44 %
25.12.2020 05:00 2,6 C 1,7 C 1,1 C 94 % 1021,3 hPa 0,0 l/m 0 min 0 min 0 W/m 12,9 km/h (3 Bft) 95,83 %
25.12.2020 05:02 2,5 C 1,7 C 1,1 C 94 % 1021,3 hPa 0,0 l/m 0 min 0 min 0 W/m 0,0 km/h (0 Bft) 97,87 %
25.12.2020 05:04 2,5 C 1,7 C 1,1 C 94 % 1021,3 hPa 0,0 l/m 0 min 0 min 0 W/m 0,0 km/h (0 Bft) 98,11 %
25.12.2020 05:06 2,5 C 1,7 C 1,1 C 94 % 1021,4 hPa 0,0 l/m 0 min 0 min 0 W/m 0,0 km/h (0 Bft) 98,00 %
25.12.2020 05:08 2,5 C 1,7 C 1,1 C 94 % 1021,3 hPa 0,0 l/m 0 min 0 min 0 W/m 0,0 km/h (0 Bft) 97,30 %
25.12.2020 05:10 2,5 C 1,7 C 1,1 C 94 % 1021,3 hPa 0,0 l/m 0 min 0 min 0 W/m 0,0 km/h (0 Bft) 97,87 %
25.12.2020 05:12 2,4 C 1,7 C 1,1 C 94 % 1021,3 hPa 0,0 l/m 0 min 0 min 0 W/m 0,0 km/h (0 Bft) 97,87 %
25.12.2020 05:14 2,4 C 1,1 C 1,1 C 94 % 1021,4 hPa 0,0 l/m 0 min 0 min 0 W/m 0,0 km/h (0 Bft) 98,11 %
25.12.2020 05:16 2,4 C 1,1 C 1,1 C 94 % 1021,4 hPa 0,0 l/m 0 min 0 min 0 W/m 0,0 km/h (0 Bft) 96,00 %
25.12.2020 05:18 2,4 C 1,1 C 1,1 C 94 % 1021,3 hPa 0,0 l/m 0 min 0 min 0 W/m 0,0 km/h (0 Bft) 97,30 %
25.12.2020 05:20 2,4 C 1,1 C 1,1 C 94 % 1021,3 hPa 0,0 l/m 0 min 0 min 0 W/m 0,0 km/h (0 Bft) 97,87 %
25.12.2020 05:22 2,3 C 1,1 C 1,1 C 94 % 1021,4 hPa 0,0 l/m 0 min 0 min 0 W/m 0,0 km/h (0 Bft) 96,30 %
25.12.2020 05:24 2,3 C 1,1 C 1,1 C 94 % 1021,4 hPa 0,0 l/m 0 min 0 min 0 W/m 0,0 km/h (0 Bft) 97,96 %
25.12.2020 05:26 2,3 C 1,1 C 1,1 C 94 % 1021,5 hPa 0,0 l/m 0 min 0 min 0 W/m 0,0 km/h (0 Bft) 100,00 %
25.12.2020 05:28 2,3 C 1,1 C 1,1 C 94 % 1021,5 hPa 0,0 l/m 0 min 0 min 0 W/m 0,0 km/h (0 Bft) 97,87 %
25.12.2020 05:30 2,2 C 1,1 C 0,5 C 95 % 1021,6 hPa 0,0 l/m 0 min 0 min 0 W/m 0,0 km/h (0 Bft) 94,34 %
25.12.2020 05:32 2,2 C 1,1 C 0,5 C 94 % 1021,7 hPa 0,0 l/m 0 min 0 min 0 W/m 0,0 km/h (0 Bft) 98,00 %
25.12.2020 05:34 2,2 C 1,1 C 0,5 C 94 % 1021,7 hPa 0,0 l/m 0 min 0 min 0 W/m 0,0 km/h (0 Bft) 94,59 %
25.12.2020 05:36 2,1 C 1,1 C 0,5 C 94 % 1021,8 hPa 0,0 l/m 0 min 0 min 0 W/m 0,0 km/h (0 Bft) 97,87 %
25.12.2020 05:38 2,1 C 1,1 C 0,5 C 94 % 1021,9 hPa 0,0 l/m 0 min 0 min 0 W/m 0,0 km/h (0 Bft) 97,87 %
25.12.2020 05:40 2,1 C 1,1 C 0,5 C 94 % 1021,8 hPa 0,0 l/m 0 min 0 min 0 W/m 0,0 km/h (0 Bft) 97,87 %
25.12.2020 05:42 2,0 C 1,1 C 0,5 C 94 % 1021,8 hPa 0,0 l/m 0 min 0 min 0 W/m 0,0 km/h (0 Bft) 96,23 %
25.12.2020 05:44 2,0 C 1,1 C 0,5 C 94 % 1021,9 hPa 0,0 l/m 0 min 0 min 0 W/m 0,0 km/h (0 Bft) 98,00 %
25.12.2020 05:46 2,0 C 1,1 C 0,5 C 94 % 1021,8 hPa 0,0 l/m 0 min 0 min 0 W/m 0,0 km/h (0 Bft) 94,59 %
25.12.2020 05:48 2,0 C 1,1 C 0,5 C 95 % 1021,8 hPa 0,0 l/m 0 min 0 min 0 W/m 0,0 km/h (0 Bft) 97,87 %
25.12.2020 05:50 2,0 C 1,1 C 0,5 C 95 % 1021,8 hPa 0,0 l/m 0 min 0 min 0 W/m 0,0 km/h (0 Bft) 98,11 %
25.12.2020 05:52 1,9 C 1,1 C 0,5 C 95 % 1021,8 hPa 0,0 l/m 0 min 0 min 0 W/m 0,0 km/h (0 Bft) 100,00 %
25.12.2020 05:54 1,9 C 1,1 C 0,5 C 95 % 1021,9 hPa 0,0 l/m 0 min 0 min 0 W/m 0,0 km/h (0 Bft) 96,00 %
25.12.2020 05:56 1,9 C 1,1 C 0,5 C 95 % 1021,8 hPa 0,0 l/m 0 min 0 min 0 W/m 0,0 km/h (0 Bft) 97,30 %
25.12.2020 05:58 1,9 C 1,1 C 0,5 C 95 % 1021,9 hPa 0,0 l/m 0 min 0 min 0 W/m 0,0 km/h (0 Bft) 97,87 %
25.12.2020 06:00 1,9 C 1,1 C 0,5 C 95 % 1021,8 hPa 0,0 l/m 0 min 0 min 0 W/m 0,0 km/h (0 Bft) 98,11 %
25.12.2020 06:02 1,9 C 1,1 C 0,5 C 95 % 1021,9 hPa 0,0 l/m 0 min 0 min 0 W/m 0,0 km/h (0 Bft) 98,00 %
25.12.2020 06:04 1,8 C 1,1 C 0,5 C 95 % 1021,9 hPa 0,0 l/m 0 min 0 min 0 W/m 0,0 km/h (0 Bft) 97,87 %
25.12.2020 06:08 1,8 C 0,6 C 0,5 C 95 % 1021,9 hPa 0,0 l/m 0 min 0 min 0 W/m 0,0 km/h (0 Bft) 97,62 %
25.12.2020 06:10 1,8 C 0,6 C 0,5 C 95 % 1021,9 hPa 0,0 l/m 0 min 0 min 0 W/m 0,0 km/h (0 Bft) 97,87 %
25.12.2020 06:12 1,8 C 0,6 C 0,5 C 95 % 1021,9 hPa 0,0 l/m 0 min 0 min 0 W/m 0,0 km/h (0 Bft) 94,44 %
25.12.2020 06:14 1,7 C 0,6 C 0,5 C 95 % 1022,0 hPa 0,0 l/m 0 min 0 min 0 W/m 0,0 km/h (0 Bft) 97,37 %
25.12.2020 06:16 1,7 C 0,6 C -0,1 C 95 % 1022,0 hPa 0,0 l/m 0 min 0 min 0 W/m 0,0 km/h (0 Bft) 97,92 %
25.12.2020 06:18 1,7 C 0,6 C -0,1 C 95 % 1022,0 hPa 0,0 l/m 0 min 0 min 0 W/m 0,0 km/h (0 Bft) 97,87 %
25.12.2020 06:20 1,6 C 0,6 C -0,1 C 95 % 1022,0 hPa 0,0 l/m 0 min 0 min 0 W/m 0,0 km/h (0 Bft) 96,30 %
25.12.2020 06:22 1,6 C 0,6 C -0,1 C 95 % 1022,0 hPa 0,0 l/m 0 min 0 min 0 W/m 0,0 km/h (0 Bft) 97,96 %
25.12.2020 06:24 1,6 C 0,6 C -0,1 C 95 % 1022,0 hPa 0,0 l/m 0 min 0 min 0 W/m 0,0 km/h (0 Bft) 94,74 %
25.12.2020 06:26 1,6 C 0,6 C -0,1 C 95 % 1022,0 hPa 0,0 l/m 0 min 0 min 0 W/m 0,0 km/h (0 Bft) 97,87 %
25.12.2020 06:28 1,6 C 0,6 C -0,1 C 95 % 1022,1 hPa 0,0 l/m 0 min 0 min 0 W/m 0,0 km/h (0 Bft) 95,65 %
25.12.2020 06:30 1,6 C 0,6 C -0,1 C 95 % 1022,1 hPa 0,0 l/m 0 min 0 min 0 W/m 0,0 km/h (0 Bft) 96,30 %
25.12.2020 06:32 1,5 C 0,6 C -0,1 C 95 % 1022,0 hPa 0,0 l/m 0 min 0 min 0 W/m 0,0 km/h (0 Bft) 97,92 %
25.12.2020 06:34 1,5 C 0,6 C -0,1 C 95 % 1022,2 hPa 0,0 l/m 0 min 0 min 0 W/m 0,0 km/h (0 Bft) 97,37 %
25.12.2020 06:36 1,5 C 0,6 C -0,1 C 95 % 1022,2 hPa 0,0 l/m 0 min 0 min 0 W/m 0,0 km/h (0 Bft) 97,92 %
25.12.2020 06:38 1,5 C 0,6 C -0,1 C 95 % 1022,2 hPa 0,0 l/m 0 min 0 min 0 W/m 0,0 km/h (0 Bft) 95,74 %
25.12.2020 06:40 1,4 C 0,6 C -0,1 C 95 % 1022,2 hPa 0,0 l/m 0 min 0 min 0 W/m 0,0 km/h (0 Bft) 97,83 %
25.12.2020 06:42 1,4 C 0,6 C -0,1 C 95 % 1022,2 hPa 0,0 l/m 0 min 0 min 0 W/m 0,0 km/h (0 Bft) 98,15 %
25.12.2020 06:44 1,4 C 0,6 C -0,1 C 95 % 1022,3 hPa 0,0 l/m 0 min 0 min 0 W/m 0,0 km/h (0 Bft) 96,00 %
25.12.2020 06:46 1,4 C 0,6 C -0,1 C 95 % 1022,3 hPa 0,0 l/m 0 min 0 min 0 W/m 0,0 km/h (0 Bft) 100,00 %
25.12.2020 06:48 1,4 C 0,6 C 0,5 C 95 % 1022,3 hPa 0,0 l/m 0 min 0 min 0 W/m 0,0 km/h (0 Bft) 95,74 %
25.12.2020 06:50 1,4 C 0,6 C 0,5 C 95 % 1022,4 hPa 0,0 l/m 0 min 0 min 0 W/m 0,0 km/h (0 Bft) 96,23 %
25.12.2020 06:52 1,4 C 0,6 C 0,5 C 95 % 1022,4 hPa 0,0 l/m 0 min 0 min 0 W/m 0,0 km/h (0 Bft) 98,00 %
25.12.2020 06:54 1,4 C 0,6 C 0,5 C 95 % 1022,4 hPa 0,0 l/m 0 min 0 min 0 W/m 0,0 km/h (0 Bft) 97,30 %
25.12.2020 06:56 1,4 C 0,6 C 0,5 C 95 % 1022,4 hPa 0,0 l/m 0 min 0 min 0 W/m 0,0 km/h (0 Bft) 95,74 %
25.12.2020 06:58 1,4 C 0,6 C 0,5 C 95 % 1022,5 hPa 0,0 l/m 0 min 0 min 0 W/m 0,0 km/h (0 Bft) 96,23 %
25.12.2020 07:00 1,4 C 0,6 C 0,5 C 95 % 1022,5 hPa 0,0 l/m 0 min 0 min 0 W/m 0,0 km/h (0 Bft) 98,00 %
25.12.2020 07:02 1,4 C 0,6 C 0,5 C 95 % 1022,6 hPa 0,0 l/m 0 min 0 min 0 W/m 0,0 km/h (0 Bft) 94,59 %
25.12.2020 07:04 1,4 C 0,6 C 0,5 C 95 % 1022,5 hPa 0,0 l/m 0 min 0 min 0 W/m 0,0 km/h (0 Bft) 97,87 %
25.12.2020 07:08 1,4 C 0,6 C 0,5 C 95 % 1022,6 hPa 0,0 l/m 0 min 0 min 0 W/m 0,0 km/h (0 Bft) 96,81 %
25.12.2020 07:10 1,4 C 0,6 C 0,5 C 95 % 1022,6 hPa 0,0 l/m 0 min 0 min 0 W/m 0,0 km/h (0 Bft) 93,62 %
25.12.2020 07:12 1,4 C 0,6 C 0,5 C 95 % 1022,6 hPa 0,0 l/m 0 min 0 min 0 W/m 0,0 km/h (0 Bft) 96,30 %
25.12.2020 07:14 1,4 C 0,6 C 0,5 C 95 % 1022,6 hPa 0,0 l/m 0 min 0 min 0 W/m 0,0 km/h (0 Bft) 97,37 %
25.12.2020 07:16 1,4 C 0,6 C 0,5 C 95 % 1022,7 hPa 0,0 l/m 0 min 0 min 0 W/m 0,0 km/h (0 Bft) 95,83 %
25.12.2020 07:18 1,4 C 0,6 C 0,5 C 95 % 1022,7 hPa 0,0 l/m 0 min 0 min 0 W/m 0,0 km/h (0 Bft) 97,87 %
25.12.2020 07:20 1,4 C 0,6 C 0,5 C 96 % 1022,7 hPa 0,0 l/m 0 min 0 min 0 W/m 0,0 km/h (0 Bft) 98,15 %
25.12.2020 07:22 1,4 C 1,1 C 0,5 C 96 % 1022,8 hPa 0,0 l/m 0 min 0 min 0 W/m 0,0 km/h (0 Bft) 97,96 %
25.12.2020 07:24 1,4 C 1,1 C 0,5 C 96 % 1022,7 hPa 0,0 l/m 0 min 0 min 0 W/m 0,0 km/h (0 Bft) 97,37 %
25.12.2020 07:26 1,4 C 1,1 C 0,5 C 96 % 1022,7 hPa 0,0 l/m 0 min 0 min 0 W/m 0,0 km/h (0 Bft) 95,65 %
25.12.2020 07:28 1,4 C 1,1 C 0,5 C 96 % 1022,7 hPa 0,0 l/m 0 min 0 min 0 W/m 0,0 km/h (0 Bft) 96,30 %
25.12.2020 07:30 1,4 C 1,1 C 0,5 C 96 % 1022,8 hPa 0,0 l/m 0 min 0 min 0 W/m 0,0 km/h (0 Bft) 98,00 %
25.12.2020 07:32 1,4 C 1,1 C 0,5 C 96 % 1022,8 hPa 0,0 l/m 0 min 0 min 0 W/m 0,0 km/h (0 Bft) 97,30 %
25.12.2020 07:34 1,4 C 1,1 C 0,5 C 96 % 1022,8 hPa 0,0 l/m 0 min 0 min 0 W/m 0,0 km/h (0 Bft) 95,74 %
25.12.2020 07:36 1,4 C 1,1 C 0,5 C 96 % 1022,8 hPa 0,0 l/m 0 min 0 min 0 W/m 0,0 km/h (0 Bft) 98,11 %
25.12.2020 07:38 1,4 C 1,1 C 0,5 C 96 % 1022,8 hPa 0,0 l/m 0 min 0 min 0 W/m 0,0 km/h (0 Bft) 97,87 %
25.12.2020 07:40 1,4 C 1,1 C 0,5 C 96 % 1022,9 hPa 0,0 l/m 0 min 0 min 0 W/m 0,0 km/h (0 Bft) 97,87 %
25.12.2020 07:42 1,4 C 1,1 C 0,5 C 96 % 1022,9 hPa 0,0 l/m 0 min 0 min 0 W/m 0,0 km/h (0 Bft) 94,00 %
25.12.2020 07:44 1,4 C 1,1 C 0,5 C 96 % 1022,9 hPa 0,0 l/m 0 min 0 min 0 W/m 0,0 km/h (0 Bft) 100,00 %
25.12.2020 07:46 1,4 C 1,1 C 0,5 C 96 % 1022,9 hPa 0,0 l/m 0 min 0 min 0 W/m 0,0 km/h (0 Bft) 95,74 %
25.12.2020 07:48 1,4 C 1,1 C 0,5 C 96 % 1022,9 hPa 0,0 l/m 0 min 0 min 0 W/m 0,0 km/h (0 Bft) 98,11 %
25.12.2020 07:50 1,4 C 1,1 C 0,5 C 96 % 1022,9 hPa 0,0 l/m 0 min 0 min 0 W/m 0,0 km/h (0 Bft) 98,00 %
25.12.2020 07:52 1,4 C 1,1 C 0,5 C 96 % 1023,0 hPa 0,0 l/m 0 min 0 min 0 W/m 0,0 km/h (0 Bft) 97,30 %
25.12.2020 07:54 1,5 C 1,1 C 0,5 C 96 % 1023,0 hPa 0,0 l/m 0 min 0 min 0 W/m 0,0 km/h (0 Bft) 97,87 %
25.12.2020 07:56 1,4 C 1,1 C 0,5 C 96 % 1023,0 hPa 0,0 l/m 0 min 0 min 0 W/m 0,0 km/h (0 Bft) 96,23 %
25.12.2020 07:58 1,5 C 1,1 C 0,5 C 96 % 1023,1 hPa 0,0 l/m 0 min 0 min 0 W/m 0,0 km/h (0 Bft) 96,00 %
25.12.2020 08:00 1,5 C 1,1 C 0,5 C 96 % 1023,0 hPa 0,0 l/m 0 min 0 min 0 W/m 0,0 km/h (0 Bft) 100,00 %
25.12.2020 08:02 1,5 C 1,1 C 0,5 C 96 % 1023,1 hPa 0,0 l/m 0 min 0 min 0 W/m 0,0 km/h (0 Bft) 97,87 %
25.12.2020 08:04 1,5 C 1,1 C 0,5 C 96 % 1023,1 hPa 0,0 l/m 0 min 0 min 0 W/m 0,0 km/h (0 Bft) 98,15 %
25.12.2020 08:06 1,5 C 1,1 C 0,5 C 96 % 1023,1 hPa 0,0 l/m 0 min 0 min 0 W/m 0,0 km/h (0 Bft) 97,96 %
25.12.2020 08:08 1,5 C 1,1 C 0,5 C 96 % 1023,2 hPa 0,0 l/m 0 min 0 min 0 W/m 0,0 km/h (0 Bft) 100,00 %
25.12.2020 08:10 1,5 C 1,1 C 0,5 C 96 % 1023,3 hPa 0,0 l/m 0 min 0 min 0 W/m 0,0 km/h (0 Bft) 97,92 %
25.12.2020 08:12 1,5 C 1,1 C 0,5 C 96 % 1023,3 hPa 0,0 l/m 0 min 0 min 0 W/m 6,4 km/h (2 Bft) 100,00 %
25.12.2020 08:14 1,5 C 1,1 C 0,5 C 96 % 1023,3 hPa 0,0 l/m 0 min 0 min 0 W/m 0,0 km/h (0 Bft) 96,30 %
25.12.2020 08:16 1,5 C 1,1 C 0,5 C 96 % 1023,4 hPa 0,0 l/m 0 min 0 min 0 W/m 3,2 km/h (1 Bft) 98,00 %
25.12.2020 08:18 1,5 C 1,1 C 0,5 C 96 % 1023,4 hPa 0,0 l/m 0 min 0 min 0 W/m 0,0 km/h (0 Bft) 100,00 %
25.12.2020 08:20 1,5 C 1,1 C 0,5 C 97 % 1023,4 hPa 0,0 l/m 0 min 0 min 0 W/m 0,0 km/h (0 Bft) 100,00 %
25.12.2020 08:22 1,5 C 1,1 C 0,5 C 97 % 1023,5 hPa 0,0 l/m 0 min 0 min 0 W/m 0,0 km/h (0 Bft) 97,87 %
25.12.2020 08:24 1,5 C 1,1 C 0,5 C 96 % 1023,4 hPa 0,0 l/m 0 min 0 min 0 W/m 0,0 km/h (0 Bft) 100,00 %
25.12.2020 08:26 1,5 C 1,1 C 0,5 C 97 % 1023,5 hPa 0,0 l/m 0 min 0 min 0 W/m 0,0 km/h (0 Bft) 100,00 %
25.12.2020 08:28 1,4 C 1,1 C 0,5 C 96 % 1023,5 hPa 0,0 l/m 0 min 0 min 0 W/m 0,0 km/h (0 Bft) 100,00 %
25.12.2020 08:30 1,4 C 1,1 C 0,5 C 96 % 1023,6 hPa 0,0 l/m 0 min 0 min 0 W/m 0,0 km/h (0 Bft) 100,00 %
25.12.2020 08:32 1,4 C 1,1 C 0,5 C 96 % 1023,6 hPa 0,0 l/m 0 min 0 min 0 W/m 0,0 km/h (0 Bft) 100,00 %
25.12.2020 08:34 1,4 C 1,1 C 0,5 C 96 % 1023,7 hPa 0,0 l/m 0 min 0 min 0 W/m 0,0 km/h (0 Bft) 100,00 %
25.12.2020 08:36 1,4 C 1,1 C 0,5 C 96 % 1023,7 hPa 0,0 l/m 0 min 0 min 0 W/m 0,0 km/h (0 Bft) 100,00 %
25.12.2020 08:38 1,4 C 1,1 C 0,5 C 96 % 1023,6 hPa 0,0 l/m 0 min 0 min 0 W/m 0,0 km/h (0 Bft) 100,00 %
25.12.2020 08:40 1,4 C 1,1 C 0,5 C 96 % 1023,6 hPa 0,0 l/m 0 min 0 min 0 W/m 0,0 km/h (0 Bft) 100,00 %
25.12.2020 08:42 1,4 C 1,1 C 0,5 C 96 % 1023,6 hPa 0,0 l/m 0 min 0 min 0 W/m 0,0 km/h (0 Bft) 97,87 %
25.12.2020 08:44 1,4 C 1,1 C 0,5 C 96 % 1023,6 hPa 0,0 l/m 0 min 0 min 0 W/m 0,0 km/h (0 Bft) 100,00 %
25.12.2020 08:46 1,4 C 0,6 C 0,5 C 96 % 1023,6 hPa 0,0 l/m 0 min 0 min 0 W/m 0,0 km/h (0 Bft) 100,00 %
25.12.2020 08:48 1,4 C 0,6 C 0,5 C 96 % 1023,7 hPa 0,0 l/m 0 min 0 min 4 W/m 0,0 km/h (0 Bft) 97,87 %
25.12.2020 08:50 1,4 C 0,6 C 0,5 C 96 % 1023,6 hPa 0,0 l/m 0 min 0 min 5 W/m 0,0 km/h (0 Bft) 100,00 %
25.12.2020 08:52 1,4 C 0,6 C 0,5 C 96 % 1023,6 hPa 0,0 l/m 0 min 0 min 5 W/m 0,0 km/h (0 Bft) 100,00 %
25.12.2020 08:54 1,4 C 0,6 C 0,5 C 96 % 1023,7 hPa 0,0 l/m 0 min 0 min 5 W/m 0,0 km/h (0 Bft) 97,87 %
25.12.2020 08:56 1,4 C 1,1 C 0,5 C 96 % 1023,7 hPa 0,0 l/m 0 min 0 min 5 W/m 0,0 km/h (0 Bft) 100,00 %
25.12.2020 08:58 1,4 C 0,6 C 0,5 C 96 % 1023,7 hPa 0,0 l/m 0 min 0 min 7 W/m 0,0 km/h (0 Bft) 97,87 %
25.12.2020 09:00 1,3 C 0,6 C 0,5 C 97 % 1023,7 hPa 0,0 l/m 0 min 0 min 7 W/m 0,0 km/h (0 Bft) 96,00 %
25.12.2020 09:02 1,3 C 0,6 C 0,5 C 97 % 1023,7 hPa 0,0 l/m 0 min 0 min 7 W/m 0,0 km/h (0 Bft) 100,00 %
25.12.2020 09:04 1,3 C 0,6 C 0,5 C 97 % 1023,7 hPa 0,0 l/m 0 min 0 min 7 W/m 0,0 km/h (0 Bft) 97,87 %
25.12.2020 09:06 1,3 C 0,6 C 0,5 C 97 % 1023,7 hPa 0,0 l/m 0 min 0 min 8 W/m 0,0 km/h (0 Bft) 96,23 %
25.12.2020 09:08 1,3 C 0,6 C 0,5 C 97 % 1023,6 hPa 0,0 l/m 0 min 0 min 9 W/m 0,0 km/h (0 Bft) 98,00 %
25.12.2020 09:10 1,3 C 0,6 C 0,5 C 97 % 1023,7 hPa 0,0 l/m 0 min 0 min 9 W/m 0,0 km/h (0 Bft) 97,83 %
25.12.2020 09:12 1,3 C 0,6 C 0,5 C 97 % 1023,7 hPa 0,0 l/m 0 min 0 min 9 W/m 0,0 km/h (0 Bft) 97,37 %
25.12.2020 09:14 1,3 C 0,6 C 0,5 C 97 % 1023,8 hPa 0,0 l/m 0 min 0 min 10 W/m 0,0 km/h (0 Bft) 95,74 %
25.12.2020 09:16 1,3 C 0,6 C 0,5 C 97 % 1023,7 hPa 0,0 l/m 0 min 0 min 11 W/m 0,0 km/h (0 Bft) 97,87 %
25.12.2020 09:18 1,3 C 0,6 C -0,1 C 97 % 1023,8 hPa 0,0 l/m 0 min 0 min 11 W/m 3,2 km/h (1 Bft) 97,87 %
25.12.2020 09:20 1,2 C 0,6 C -0,1 C 97 % 1023,7 hPa 0,0 l/m 0 min 0 min 11 W/m 0,0 km/h (0 Bft) 95,74 %
25.12.2020 09:22 1,2 C 0,6 C -0,1 C 97 % 1023,7 hPa 0,0 l/m 0 min 0 min 12 W/m 0,0 km/h (0 Bft) 98,18 %
25.12.2020 09:24 1,2 C 0,6 C -0,1 C 97 % 1023,7 hPa 0,0 l/m 0 min 0 min 13 W/m 0,0 km/h (0 Bft) 97,37 %
25.12.2020 09:26 1,2 C 0,6 C -0,1 C 97 % 1023,7 hPa 0,0 l/m 0 min 0 min 14 W/m 0,0 km/h (0 Bft) 97,87 %
25.12.2020 09:28 1,2 C 0,6 C -0,1 C 97 % 1023,7 hPa 0,0 l/m 0 min 0 min 15 W/m 0,0 km/h (0 Bft) 98,11 %
25.12.2020 09:30 1,1 C 0,6 C -0,1 C 97 % 1023,8 hPa 0,0 l/m 0 min 0 min 16 W/m 0,0 km/h (0 Bft) 96,00 %
25.12.2020 09:32 1,1 C 0,6 C -0,1 C 97 % 1023,9 hPa 0,0 l/m 0 min 0 min 18 W/m 0,0 km/h (0 Bft) 97,37 %
25.12.2020 09:34 1,1 C 0,6 C 0,5 C 97 % 1023,8 hPa 0,0 l/m 0 min 0 min 18 W/m 0,0 km/h (0 Bft) 97,83 %
25.12.2020 09:36 1,1 C 0,6 C 0,5 C 97 % 1023,8 hPa 0,0 l/m 0 min 0 min 20 W/m 0,0 km/h (0 Bft) 94,44 %
25.12.2020 09:38 1,1 C 0,6 C 0,5 C 97 % 1023,8 hPa 0,0 l/m 0 min 0 min 22 W/m 0,0 km/h (0 Bft) 97,87 %
25.12.2020 09:40 1,1 C 0,6 C 0,5 C 97 % 1023,8 hPa 0,0 l/m 0 min 0 min 26 W/m 0,0 km/h (0 Bft) 97,87 %
25.12.2020 09:42 1,1 C 1,1 C 0,5 C 97 % 1023,8 hPa 0,0 l/m 0 min 0 min 34 W/m 0,0 km/h (0 Bft) 100,00 %
25.12.2020 09:44 1,1 C 1,1 C 0,5 C 97 % 1023,8 hPa 0,0 l/m 0 min 0 min 44 W/m 0,0 km/h (0 Bft) 100,00 %
25.12.2020 09:46 1,1 C 1,1 C 0,5 C 97 % 1023,8 hPa 0,0 l/m 0 min 0 min 49 W/m 0,0 km/h (0 Bft) 100,00 %
25.12.2020 09:48 1,1 C 1,1 C 1,1 C 97 % 1023,9 hPa 0,0 l/m 0 min 0 min 51 W/m 0,0 km/h (0 Bft) 100,00 %
25.12.2020 09:50 1,2 C 1,7 C 1,1 C 97 % 1023,8 hPa 0,0 l/m 0 min 0 min 52 W/m 0,0 km/h (0 Bft) 100,00 %
25.12.2020 09:52 1,3 C 1,7 C 1,1 C 97 % 1023,9 hPa 0,0 l/m 0 min 0 min 51 W/m 0,0 km/h (0 Bft) 95,83 %
25.12.2020 09:54 1,3 C 1,7 C 1,1 C 97 % 1023,8 hPa 0,0 l/m 0 min 0 min 49 W/m 0,0 km/h (0 Bft) 100,00 %
25.12.2020 09:56 1,4 C 1,7 C 1,1 C 97 % 1023,8 hPa 0,0 l/m 0 min 0 min 46 W/m 0,0 km/h (0 Bft) 100,00 %
25.12.2020 09:58 1,4 C 1,7 C 1,6 C 97 % 1023,8 hPa 0,0 l/m 0 min 0 min 46 W/m 0,0 km/h (0 Bft) 100,00 %
25.12.2020 10:00 1,5 C 2,2 C 1,6 C 97 % 1023,8 hPa 0,0 l/m 0 min 0 min 44 W/m 0,0 km/h (0 Bft) 97,87 %
25.12.2020 10:02 1,5 C 2,2 C 1,6 C 97 % 1023,8 hPa 0,0 l/m 0 min 0 min 42 W/m 0,0 km/h (0 Bft) 100,00 %
25.12.2020 10:04 1,6 C 2,2 C 1,6 C 97 % 1023,8 hPa 0,0 l/m 0 min 0 min 40 W/m 0,0 km/h (0 Bft) 95,74 %
25.12.2020 10:06 1,7 C 2,2 C 1,6 C 97 % 1023,8 hPa 0,0 l/m 0 min 0 min 40 W/m 0,0 km/h (0 Bft) 98,11 %
25.12.2020 10:08 1,8 C 2,2 C 1,6 C 97 % 1023,8 hPa 0,0 l/m 0 min 0 min 39 W/m 3,2 km/h (1 Bft) 98,00 %
25.12.2020 10:10 1,9 C 2,2 C 1,6 C 97 % 1024,0 hPa 0,0 l/m 0 min 0 min 39 W/m 19,3 km/h (3 Bft) 97,87 %
25.12.2020 10:12 1,9 C 2,2 C 1,6 C 97 % 1024,0 hPa 0,0 l/m 0 min 0 min 40 W/m 0,0 km/h (0 Bft) 97,30 %
25.12.2020 10:14 2,0 C 2,2 C 1,6 C 97 % 1024,0 hPa 0,0 l/m 0 min 0 min 40 W/m 0,0 km/h (0 Bft) 98,18 %
25.12.2020 10:16 2,0 C 2,2 C 1,6 C 97 % 1024,1 hPa 0,0 l/m 0 min 0 min 39 W/m 0,0 km/h (0 Bft) 97,37 %
25.12.2020 10:18 2,0 C 2,2 C 1,6 C 98 % 1024,0 hPa 0,0 l/m 0 min 0 min 40 W/m 6,4 km/h (2 Bft) 97,92 %
25.12.2020 10:20 2,1 C 2,2 C 1,6 C 98 % 1024,1 hPa 0,0 l/m 0 min 0 min 38 W/m 0,0 km/h (0 Bft) 97,83 %
25.12.2020 10:22 2,1 C 2,2 C 1,6 C 98 % 1024,1 hPa 0,0 l/m 0 min 0 min 35 W/m 0,0 km/h (0 Bft) 96,43 %
25.12.2020 10:24 2,1 C 2,2 C 1,6 C 98 % 1024,1 hPa 0,0 l/m 0 min 0 min 37 W/m 0,0 km/h (0 Bft) 94,74 %
25.12.2020 10:26 2,2 C 2,2 C 2,2 C 98 % 1024,0 hPa 0,0 l/m 0 min 0 min 39 W/m 0,0 km/h (0 Bft) 97,87 %
25.12.2020 10:28 2,2 C 2,2 C 2,2 C 98 % 1024,0 hPa 0,0 l/m 0 min 0 min 39 W/m 0,0 km/h (0 Bft) 98,18 %
25.12.2020 10:30 2,3 C 2,2 C 2,2 C 98 % 1024,1 hPa 0,0 l/m 0 min 0 min 38 W/m 0,0 km/h (0 Bft) 97,37 %
25.12.2020 10:32 2,3 C 2,2 C 2,2 C 98 % 1024,1 hPa 0,0 l/m 0 min 0 min 41 W/m 0,0 km/h (0 Bft) 95,74 %
25.12.2020 10:34 2,3 C 2,2 C 2,2 C 98 % 1024,2 hPa 0,0 l/m 0 min 0 min 48 W/m 0,0 km/h (0 Bft) 97,87 %
25.12.2020 10:36 2,3 C 2,8 C 2,2 C 98 % 1024,2 hPa 0,0 l/m 0 min 0 min 53 W/m 0,0 km/h (0 Bft) 96,43 %
25.12.2020 10:38 2,3 C 2,8 C 2,2 C 98 % 1024,2 hPa 0,0 l/m 0 min 0 min 54 W/m 3,2 km/h (1 Bft) 100,00 %
25.12.2020 10:40 2,4 C 2,8 C 2,2 C 98 % 1024,2 hPa 0,0 l/m 0 min 0 min 57 W/m 0,0 km/h (0 Bft) 95,65 %
25.12.2020 10:42 2,4 C 2,8 C 2,2 C 98 % 1024,3 hPa 0,0 l/m 0 min 0 min 65 W/m 0,0 km/h (0 Bft) 95,74 %
25.12.2020 10:44 2,4 C 2,8 C 2,7 C 98 % 1024,2 hPa 0,0 l/m 0 min 0 min 69 W/m 0,0 km/h (0 Bft) 97,87 %
25.12.2020 10:46 2,4 C 2,8 C 2,7 C 98 % 1024,3 hPa 0,0 l/m 0 min 0 min 64 W/m 0,0 km/h (0 Bft) 98,21 %
25.12.2020 10:48 2,5 C 2,8 C 2,7 C 98 % 1024,3 hPa 0,0 l/m 0 min 0 min 57 W/m 0,0 km/h (0 Bft) 100,00 %
25.12.2020 10:50 2,5 C 2,8 C 2,7 C 98 % 1024,3 hPa 0,0 l/m 0 min 0 min 51 W/m 0,0 km/h (0 Bft) 100,00 %
25.12.2020 10:52 2,5 C 2,8 C 2,7 C 98 % 1024,4 hPa 0,0 l/m 0 min 0 min 46 W/m 0,0 km/h (0 Bft) 100,00 %
25.12.2020 10:54 2,6 C 2,8 C 2,7 C 98 % 1024,4 hPa 0,0 l/m 0 min 0 min 47 W/m 0,0 km/h (0 Bft) 100,00 %
25.12.2020 10:56 2,6 C 2,8 C 2,7 C 98 % 1024,4 hPa 0,0 l/m 0 min 0 min 48 W/m 3,2 km/h (1 Bft) 100,00 %
25.12.2020 10:58 2,6 C 2,8 C 2,7 C 98 % 1024,4 hPa 0,0 l/m 0 min 0 min 48 W/m 0,0 km/h (0 Bft) 100,00 %
25.12.2020 11:00 2,7 C 2,8 C 2,7 C 98 % 1024,4 hPa 0,0 l/m 0 min 0 min 44 W/m 3,2 km/h (1 Bft) 100,00 %
25.12.2020 11:02 2,7 C 2,8 C 2,7 C 98 % 1024,4 hPa 0,0 l/m 0 min 0 min 40 W/m 0,0 km/h (0 Bft) 100,00 %
25.12.2020 11:04 2,8 C 2,8 C 2,7 C 98 % 1024,4 hPa 0,0 l/m 0 min 0 min 38 W/m 0,0 km/h (0 Bft) 100,00 %
25.12.2020 11:06 2,8 C 2,8 C 2,7 C 98 % 1024,3 hPa 0,0 l/m 0 min 0 min 39 W/m 6,4 km/h (2 Bft) 97,30 %
25.12.2020 11:08 2,8 C 2,8 C 2,7 C 98 % 1024,4 hPa 0,0 l/m 0 min 0 min 47 W/m 0,0 km/h (0 Bft) 100,00 %
25.12.2020 11:10 2,8 C 3,3 C 2,7 C 98 % 1024,4 hPa 0,0 l/m 0 min 0 min 52 W/m 0,0 km/h (0 Bft) 100,00 %
25.12.2020 11:12 2,8 C 3,3 C 2,7 C 98 % 1024,4 hPa 0,0 l/m 0 min 0 min 49 W/m 9,7 km/h (2 Bft) 100,00 %
25.12.2020 11:14 2,9 C 3,3 C 2,7 C 98 % 1024,4 hPa 0,0 l/m 0 min 0 min 48 W/m 0,0 km/h (0 Bft) 100,00 %
25.12.2020 11:16 2,9 C 3,3 C 2,7 C 98 % 1024,4 hPa 0,0 l/m 0 min 0 min 49 W/m 3,2 km/h (1 Bft) 100,00 %
25.12.2020 11:18 2,9 C 3,3 C 2,7 C 98 % 1024,4 hPa 0,0 l/m 0 min 0 min 57 W/m 3,2 km/h (1 Bft) 97,87 %
25.12.2020 11:20 2,9 C 3,3 C 2,7 C 98 % 1024,4 hPa 0,0 l/m 0 min 0 min 63 W/m 22,5 km/h (4 Bft) 100,00 %
25.12.2020 11:22 3,0 C 3,3 C 2,7 C 98 % 1024,4 hPa 0,0 l/m 0 min 0 min 53 W/m 0,0 km/h (0 Bft) 97,37 %
25.12.2020 11:24 3,0 C 3,3 C 2,7 C 98 % 1024,4 hPa 0,0 l/m 0 min 0 min 44 W/m 12,9 km/h (3 Bft) 97,92 %
25.12.2020 11:26 3,0 C 3,3 C 2,7 C 98 % 1024,4 hPa 0,0 l/m 0 min 0 min 41 W/m 6,4 km/h (2 Bft) 100,00 %
25.12.2020 11:28 3,0 C 3,3 C 2,7 C 98 % 1024,4 hPa 0,0 l/m 0 min 0 min 42 W/m 0,0 km/h (0 Bft) 100,00 %
25.12.2020 11:30 3,0 C 3,3 C 2,7 C 97 % 1024,4 hPa 0,0 l/m 0 min 0 min 47 W/m 0,0 km/h (0 Bft) 100,00 %
25.12.2020 11:32 3,0 C 5,0 C 2,7 C 97 % 1024,3 hPa 0,0 l/m 0 min 0 min 58 W/m 0,0 km/h (0 Bft) 100,00 %
25.12.2020 11:34 3,0 C 6,7 C 2,7 C 97 % 1024,3 hPa 0,0 l/m 2 min 0 min 240 W/m 0,0 km/h (0 Bft) 95,74 %
25.12.2020 11:36 3,0 C 7,8 C 2,7 C 98 % 1024,4 hPa 0,0 l/m 2 min 0 min 257 W/m 0,0 km/h (0 Bft) 98,11 %
25.12.2020 11:38 3,1 C 8,3 C 3,3 C 98 % 1024,3 hPa 0,0 l/m 2 min 0 min 269 W/m 0,0 km/h (0 Bft) 100,00 %
25.12.2020 11:40 3,1 C 8,3 C 3,3 C 98 % 1024,3 hPa 0,0 l/m 2 min 0 min 278 W/m 0,0 km/h (0 Bft) 100,00 %
25.12.2020 11:42 3,3 C 8,9 C 3,3 C 97 % 1024,3 hPa 0,0 l/m 2 min 0 min 280 W/m 12,9 km/h (3 Bft) 100,00 %
25.12.2020 11:44 3,4 C 8,9 C 3,8 C 97 % 1024,4 hPa 0,0 l/m 2 min 0 min 283 W/m 6,4 km/h (2 Bft) 97,87 %
25.12.2020 11:46 3,4 C 7,2 C 3,8 C 98 % 1024,4 hPa 0,0 l/m 2 min 0 min 192 W/m 0,0 km/h (0 Bft) 98,15 %
25.12.2020 11:48 3,5 C 7,2 C 3,8 C 98 % 1024,4 hPa 0,0 l/m 2 min 0 min 179 W/m 3,2 km/h (1 Bft) 54,17 %
25.12.2020 11:50 3,5 C 6,1 C 3,8 C 97 % 1024,4 hPa 0,0 l/m 2 min 0 min 150 W/m 0,0 km/h (0 Bft) 100,00 %
25.12.2020 11:52 3,5 C 5,0 C 3,8 C 97 % 1024,4 hPa 0,0 l/m 0 min 0 min 115 W/m 0,0 km/h (0 Bft) 97,83 %
25.12.2020 11:54 3,5 C 5,0 C 3,8 C 97 % 1024,4 hPa 0,0 l/m 0 min 0 min 113 W/m 9,7 km/h (2 Bft) 98,15 %
25.12.2020 11:56 3,6 C 4,4 C 3,8 C 97 % 1024,4 hPa 0,0 l/m 0 min 0 min 102 W/m 0,0 km/h (0 Bft) 98,00 %
25.12.2020 11:58 3,6 C 4,4 C 3,8 C 97 % 1024,4 hPa 0,0 l/m 0 min 0 min 97 W/m 19,3 km/h (3 Bft) 97,30 %
25.12.2020 12:00 3,6 C 3,9 C 3,8 C 97 % 1024,4 hPa 0,0 l/m 0 min 0 min 96 W/m 29,0 km/h (5 Bft) 97,87 %
25.12.2020 12:02 3,6 C 3,9 C 3,8 C 97 % 1024,3 hPa 0,0 l/m 0 min 0 min 95 W/m 25,7 km/h (4 Bft) 98,11 %
25.12.2020 12:04 3,6 C 3,9 C 3,8 C 97 % 1024,3 hPa 0,0 l/m 0 min 0 min 83 W/m 19,3 km/h (3 Bft) 98,00 %
25.12.2020 12:08 3,6 C 3,9 C 3,3 C 96 % 1024,3 hPa 0,0 l/m 0 min 0 min 62 W/m 22,5 km/h (4 Bft) 97,62 %
25.12.2020 12:10 3,6 C 3,3 C 3,3 C 96 % 1024,2 hPa 0,0 l/m 0 min 0 min 49 W/m 16,1 km/h (3 Bft) 97,87 %
25.12.2020 12:12 3,5 C 3,3 C 3,3 C 96 % 1024,3 hPa 0,0 l/m 0 min 0 min 65 W/m 19,3 km/h (3 Bft) 98,15 %
25.12.2020 12:14 3,5 C 3,9 C 3,3 C 96 % 1024,3 hPa 0,0 l/m 0 min 0 min 78 W/m 16,1 km/h (3 Bft) 97,37 %
25.12.2020 12:16 3,5 C 3,9 C 3,3 C 96 % 1024,3 hPa 0,0 l/m 0 min 0 min 88 W/m 16,1 km/h (3 Bft) 95,83 %
25.12.2020 12:18 3,5 C 3,9 C 3,3 C 96 % 1024,4 hPa 0,0 l/m 0 min 0 min 92 W/m 12,9 km/h (3 Bft) 96,43 %
25.12.2020 12:20 3,5 C 3,9 C 3,3 C 95 % 1024,4 hPa 0,0 l/m 0 min 0 min 99 W/m 12,9 km/h (3 Bft) 97,37 %
25.12.2020 12:22 3,5 C 3,9 C 3,8 C 95 % 1024,4 hPa 0,0 l/m 0 min 0 min 99 W/m 16,1 km/h (3 Bft) 97,87 %
25.12.2020 12:24 3,5 C 3,9 C 3,3 C 95 % 1024,4 hPa 0,0 l/m 0 min 0 min 98 W/m 6,4 km/h (2 Bft) 95,74 %
25.12.2020 12:26 3,5 C 3,9 C 3,8 C 95 % 1024,4 hPa 0,0 l/m 0 min 0 min 91 W/m 0,0 km/h (0 Bft) 98,18 %
25.12.2020 12:28 3,5 C 3,9 C 3,8 C 95 % 1024,4 hPa 0,0 l/m 0 min 0 min 84 W/m 0,0 km/h (0 Bft) 97,37 %
25.12.2020 12:30 3,6 C 3,9 C 3,3 C 95 % 1024,4 hPa 0,0 l/m 0 min 0 min 84 W/m 16,1 km/h (3 Bft) 97,87 %
25.12.2020 12:32 3,6 C 3,9 C 3,3 C 95 % 1024,4 hPa 0,0 l/m 0 min 0 min 76 W/m 16,1 km/h (3 Bft) 95,74 %
25.12.2020 12:34 3,6 C 3,9 C 3,3 C 95 % 1024,4 hPa 0,0 l/m 0 min 0 min 61 W/m 12,9 km/h (3 Bft) 96,36 %
25.12.2020 12:36 3,6 C 3,9 C 3,3 C 95 % 1024,4 hPa 0,0 l/m 0 min 0 min 65 W/m 12,9 km/h (3 Bft) 97,37 %
25.12.2020 12:38 3,6 C 3,9 C 3,8 C 95 % 1024,3 hPa 0,0 l/m 0 min 0 min 78 W/m 0,0 km/h (0 Bft) 95,83 %
25.12.2020 12:40 3,6 C 4,4 C 3,8 C 95 % 1024,3 hPa 0,0 l/m 0 min 0 min 89 W/m 0,0 km/h (0 Bft) 95,65 %
25.12.2020 12:42 3,7 C 5,0 C 4,4 C 95 % 1024,3 hPa 0,0 l/m 0 min 0 min 106 W/m 3,2 km/h (1 Bft) 93,62 %
25.12.2020 12:44 3,7 C 5,6 C 4,4 C 95 % 1024,3 hPa 0,0 l/m 0 min 0 min 117 W/m 0,0 km/h (0 Bft) 96,43 %
25.12.2020 12:46 3,8 C 6,7 C 4,9 C 95 % 1024,2 hPa 0,0 l/m 2 min 0 min 196 W/m 3,2 km/h (1 Bft) 94,74 %
25.12.2020 12:48 3,8 C 7,2 C 5,5 C 95 % 1024,2 hPa 0,0 l/m 2 min 0 min 282 W/m 0,0 km/h (0 Bft) 93,62 %
25.12.2020 12:50 3,9 C 8,3 C 6,1 C 95 % 1024,2 hPa 0,0 l/m 2 min 0 min 258 W/m 0,0 km/h (0 Bft) 93,48 %
25.12.2020 12:52 4,0 C 8,9 C 6,1 C 95 % 1024,2 hPa 0,0 l/m 2 min 0 min 269 W/m 0,0 km/h (0 Bft) 94,44 %
25.12.2020 12:54 4,0 C 8,9 C 6,6 C 95 % 1024,2 hPa 0,0 l/m 2 min 0 min 274 W/m 0,0 km/h (0 Bft) 94,00 %
25.12.2020 12:56 4,1 C 9,4 C 6,6 C 95 % 1024,2 hPa 0,0 l/m 2 min 0 min 278 W/m 0,0 km/h (0 Bft) 97,30 %
25.12.2020 12:58 4,2 C 10,0 C 7,2 C 95 % 1024,2 hPa 0,0 l/m 2 min 0 min 274 W/m 0,0 km/h (0 Bft) 93,62 %
25.12.2020 13:00 4,3 C 10,0 C 6,6 C 95 % 1024,1 hPa 0,0 l/m 2 min 0 min 268 W/m 3,2 km/h (1 Bft) 96,23 %
25.12.2020 13:02 4,4 C 9,4 C 7,2 C 95 % 1024,1 hPa 0,0 l/m 2 min 0 min 272 W/m 0,0 km/h (0 Bft) 96,00 %
25.12.2020 13:04 4,4 C 10,0 C 6,6 C 95 % 1024,0 hPa 0,0 l/m 2 min 0 min 269 W/m 9,7 km/h (2 Bft) 97,30 %
25.12.2020 13:06 4,5 C 9,4 C 6,6 C 95 % 1024,0 hPa 0,0 l/m 2 min 0 min 228 W/m 25,7 km/h (4 Bft) 97,87 %
25.12.2020 13:08 4,6 C 8,9 C 6,6 C 95 % 1024,1 hPa 0,0 l/m 2 min 0 min 154 W/m 22,5 km/h (4 Bft) 98,11 %
25.12.2020 13:10 4,6 C 9,4 C 6,1 C 94 % 1024,1 hPa 0,0 l/m 2 min 0 min 244 W/m 22,5 km/h (4 Bft) 100,00 %
25.12.2020 13:12 4,8 C 10,0 C 6,1 C 94 % 1024,1 hPa 0,0 l/m 2 min 0 min 266 W/m 3,2 km/h (1 Bft) 100,00 %
25.12.2020 13:14 4,8 C 9,4 C 6,1 C 94 % 1024,0 hPa 0,0 l/m 2 min 0 min 266 W/m 29,0 km/h (5 Bft) 100,00 %
25.12.2020 13:16 4,9 C 10,0 C 6,1 C 94 % 1024,0 hPa 0,0 l/m 2 min 0 min 270 W/m 19,3 km/h (3 Bft) 100,00 %
25.12.2020 13:18 4,9 C 10,0 C 5,5 C 94 % 1024,0 hPa 0,0 l/m 2 min 0 min 273 W/m 3,2 km/h (1 Bft) 100,00 %
25.12.2020 13:20 5,0 C 10,0 C 5,5 C 94 % 1024,0 hPa 0,0 l/m 2 min 0 min 285 W/m 0,0 km/h (0 Bft) 97,50 %
25.12.2020 13:22 5,0 C 10,6 C 6,1 C 93 % 1024,0 hPa 0,0 l/m 2 min 0 min 298 W/m 0,0 km/h (0 Bft) 100,00 %
25.12.2020 13:24 5,1 C 10,6 C 6,6 C 93 % 1024,0 hPa 0,0 l/m 2 min 0 min 324 W/m 25,7 km/h (4 Bft) 100,00 %
25.12.2020 13:26 5,2 C 10,0 C 6,6 C 93 % 1024,0 hPa 0,0 l/m 2 min 0 min 329 W/m 0,0 km/h (0 Bft) 98,21 %
25.12.2020 13:28 5,3 C 9,4 C 7,2 C 93 % 1024,0 hPa 0,0 l/m 2 min 0 min 329 W/m 16,1 km/h (3 Bft) 97,37 %
25.12.2020 13:30 5,4 C 8,9 C 7,2 C 93 % 1024,0 hPa 0,0 l/m 2 min 0 min 316 W/m 16,1 km/h (3 Bft) 97,87 %
25.12.2020 13:32 5,4 C 8,3 C 7,2 C 92 % 1024,1 hPa 0,0 l/m 2 min 0 min 278 W/m 25,7 km/h (4 Bft) 97,87 %
25.12.2020 13:34 5,5 C 7,2 C 6,6 C 92 % 1024,1 hPa 0,0 l/m 0 min 0 min 113 W/m 35,4 km/h (5 Bft) 98,18 %
25.12.2020 13:36 5,5 C 6,7 C 6,1 C 91 % 1024,1 hPa 0,0 l/m 0 min 0 min 107 W/m 16,1 km/h (3 Bft) 97,37 %
25.12.2020 13:38 5,5 C 6,7 C 6,1 C 91 % 1024,1 hPa 0,0 l/m 0 min 0 min 99 W/m 0,0 km/h (0 Bft) 97,87 %
25.12.2020 13:40 5,5 C 6,7 C 6,1 C 91 % 1024,0 hPa 0,0 l/m 0 min 0 min 104 W/m 0,0 km/h (0 Bft) 97,87 %
25.12.2020 13:42 5,5 C 6,1 C 6,1 C 90 % 1024,0 hPa 0,0 l/m 0 min 0 min 84 W/m 9,7 km/h (2 Bft) 97,87 %
25.12.2020 13:44 5,5 C 6,1 C 5,5 C 90 % 1024,0 hPa 0,0 l/m 0 min 0 min 73 W/m 9,7 km/h (2 Bft) 95,74 %
25.12.2020 13:46 5,5 C 7,8 C 6,1 C 89 % 1024,0 hPa 0,0 l/m 2 min 0 min 157 W/m 0,0 km/h (0 Bft) 97,87 %
25.12.2020 13:48 5,5 C 9,4 C 7,2 C 89 % 1023,9 hPa 0,0 l/m 2 min 0 min 269 W/m 9,7 km/h (2 Bft) 94,55 %
25.12.2020 13:50 5,6 C 10,0 C 7,2 C 89 % 1023,9 hPa 0,0 l/m 2 min 0 min 282 W/m 3,2 km/h (1 Bft) 100,00 %
25.12.2020 13:52 5,6 C 10,0 C 7,7 C 89 % 1023,8 hPa 0,0 l/m 2 min 0 min 289 W/m 29,0 km/h (5 Bft) 97,87 %
25.12.2020 13:54 5,6 C 10,6 C 8,3 C 89 % 1023,8 hPa 0,0 l/m 2 min 0 min 291 W/m 0,0 km/h (0 Bft) 93,62 %
25.12.2020 13:56 5,7 C 10,0 C 8,3 C 88 % 1023,9 hPa 0,0 l/m 2 min 0 min 231 W/m 0,0 km/h (0 Bft) 98,18 %
25.12.2020 13:58 5,7 C 8,9 C 7,7 C 88 % 1023,9 hPa 0,0 l/m 2 min 0 min 156 W/m 22,5 km/h (4 Bft) 94,74 %
25.12.2020 14:00 5,8 C 8,3 C 7,2 C 88 % 1023,9 hPa 0,0 l/m 2 min 0 min 161 W/m 19,3 km/h (3 Bft) 97,87 %
25.12.2020 14:02 5,8 C 7,8 C 6,1 C 87 % 1023,9 hPa 0,0 l/m 0 min 0 min 106 W/m 12,9 km/h (3 Bft) 95,74 %
25.12.2020 14:04 5,8 C 7,2 C 6,1 C 87 % 1023,9 hPa 0,0 l/m 0 min 0 min 99 W/m 12,9 km/h (3 Bft) 97,87 %
25.12.2020 14:06 5,8 C 6,7 C 6,1 C 87 % 1023,9 hPa 0,0 l/m 0 min 0 min 100 W/m 19,3 km/h (3 Bft) 98,18 %
25.12.2020 14:08 5,8 C 6,1 C 6,1 C 87 % 1023,8 hPa 0,0 l/m 0 min 0 min 98 W/m 25,7 km/h (4 Bft) 97,37 %
25.12.2020 14:10 5,8 C 6,1 C 5,5 C 87 % 1024,0 hPa 0,0 l/m 0 min 0 min 94 W/m 22,5 km/h (4 Bft) 95,74 %
25.12.2020 14:12 5,8 C 6,1 C 5,5 C 86 % 1023,9 hPa 0,0 l/m 0 min 0 min 94 W/m 3,2 km/h (1 Bft) 95,74 %
25.12.2020 14:14 5,8 C 6,1 C 5,5 C 86 % 1023,9 hPa 0,0 l/m 0 min 0 min 97 W/m 0,0 km/h (0 Bft) 97,87 %
25.12.2020 14:16 5,7 C 6,1 C 5,5 C 86 % 1023,9 hPa 0,0 l/m 0 min 0 min 103 W/m 0,0 km/h (0 Bft) 98,21 %
25.12.2020 14:18 5,7 C 6,7 C 6,1 C 86 % 1023,9 hPa 0,0 l/m 2 min 0 min 145 W/m 3,2 km/h (1 Bft) 97,37 %
25.12.2020 14:20 5,6 C 7,2 C 6,6 C 86 % 1023,9 hPa 0,0 l/m 0 min 0 min 113 W/m 0,0 km/h (0 Bft) 97,87 %
25.12.2020 14:22 5,6 C 8,3 C 7,7 C 86 % 1023,9 hPa 0,0 l/m 2 min 0 min 217 W/m 0,0 km/h (0 Bft) 97,87 %
25.12.2020 14:24 5,6 C 9,4 C 8,8 C 86 % 1023,9 hPa 0,0 l/m 2 min 0 min 238 W/m 9,7 km/h (2 Bft) 98,15 %
25.12.2020 14:26 5,7 C 10,0 C 8,8 C 86 % 1023,9 hPa 0,0 l/m 2 min 0 min 237 W/m 12,9 km/h (3 Bft) 97,37 %
25.12.2020 14:28 5,8 C 10,0 C 9,4 C 86 % 1023,8 hPa 0,0 l/m 2 min 0 min 238 W/m 9,7 km/h (2 Bft) 97,87 %
25.12.2020 14:30 5,8 C 10,0 C 8,3 C 87 % 1023,8 hPa 0,0 l/m 2 min 0 min 232 W/m 0,0 km/h (0 Bft) 100,00 %
25.12.2020 14:32 5,9 C 9,4 C 7,7 C 87 % 1023,8 hPa 0,0 l/m 2 min 0 min 222 W/m 9,7 km/h (2 Bft) 97,87 %
25.12.2020 14:34 5,9 C 8,3 C 7,2 C 86 % 1023,9 hPa 0,0 l/m 2 min 0 min 110 W/m 22,5 km/h (4 Bft) 100,00 %
25.12.2020 14:36 5,9 C 7,8 C 6,6 C 86 % 1023,8 hPa 0,0 l/m 2 min 0 min 150 W/m 9,7 km/h (2 Bft) 96,00 %
25.12.2020 14:38 6,0 C 7,8 C 6,1 C 86 % 1023,8 hPa 0,0 l/m 2 min 0 min 108 W/m 12,9 km/h (3 Bft) 97,30 %
25.12.2020 14:40 6,0 C 7,2 C 6,1 C 86 % 1023,8 hPa 0,0 l/m 2 min 0 min 108 W/m 3,2 km/h (1 Bft) 97,87 %
25.12.2020 14:42 6,0 C 6,7 C 6,1 C 86 % 1023,8 hPa 0,0 l/m 2 min 0 min 110 W/m 22,5 km/h (4 Bft) 93,62 %
25.12.2020 14:44 6,0 C 6,7 C 6,1 C 86 % 1023,8 hPa 0,0 l/m 0 min 0 min 96 W/m 25,7 km/h (4 Bft) 96,23 %
25.12.2020 14:46 6,0 C 6,1 C 5,5 C 85 % 1023,8 hPa 0,0 l/m 0 min 0 min 78 W/m 16,1 km/h (3 Bft) 94,87 %
25.12.2020 14:48 6,0 C 5,6 C 5,5 C 85 % 1023,8 hPa 0,0 l/m 0 min 0 min 52 W/m 12,9 km/h (3 Bft) 97,92 %
25.12.2020 14:50 6,0 C 5,6 C 4,9 C 85 % 1023,8 hPa 0,0 l/m 0 min 0 min 42 W/m 6,4 km/h (2 Bft) 93,62 %
25.12.2020 14:52 6,0 C 5,6 C 4,9 C 85 % 1023,8 hPa 0,0 l/m 0 min 0 min 43 W/m 19,3 km/h (3 Bft) 98,18 %
25.12.2020 14:54 5,9 C 5,0 C 4,9 C 84 % 1023,9 hPa 0,0 l/m 0 min 0 min 48 W/m 25,7 km/h (4 Bft) 97,37 %
25.12.2020 14:56 5,9 C 5,0 C 4,4 C 84 % 1023,9 hPa 0,0 l/m 0 min 0 min 47 W/m 0,0 km/h (0 Bft) 53,33 %
25.12.2020 14:58 5,9 C 5,0 C 4,4 C 84 % 1023,9 hPa 0,0 l/m 0 min 0 min 39 W/m 19,3 km/h (3 Bft) 95,65 %
25.12.2020 15:00 5,8 C 5,0 C 4,4 C 84 % 1023,9 hPa 0,0 l/m 0 min 0 min 38 W/m 12,9 km/h (3 Bft) 96,30 %
25.12.2020 15:02 5,7 C 5,0 C 4,4 C 84 % 1024,0 hPa 0,0 l/m 0 min 0 min 32 W/m 19,3 km/h (3 Bft) 98,00 %
25.12.2020 15:04 5,7 C 5,0 C 3,8 C 84 % 1023,9 hPa 0,0 l/m 0 min 0 min 27 W/m 3,2 km/h (1 Bft) 94,59 %
25.12.2020 15:06 5,6 C 5,0 C 3,8 C 84 % 1023,9 hPa 0,0 l/m 0 min 0 min 28 W/m 12,9 km/h (3 Bft) 97,87 %
25.12.2020 15:08 5,6 C 4,4 C 3,8 C 84 % 1023,9 hPa 0,0 l/m 0 min 0 min 25 W/m 0,0 km/h (0 Bft) 98,18 %
25.12.2020 15:10 5,5 C 4,4 C 3,8 C 84 % 1023,9 hPa 0,0 l/m 0 min 0 min 26 W/m 3,2 km/h (1 Bft) 97,87 %
25.12.2020 15:12 5,5 C 4,4 C 3,8 C 84 % 1023,9 hPa 0,0 l/m 0 min 0 min 25 W/m 6,4 km/h (2 Bft) 97,37 %
25.12.2020 15:14 5,4 C 4,4 C 3,8 C 84 % 1023,9 hPa 0,0 l/m 0 min 0 min 24 W/m 16,1 km/h (3 Bft) 97,87 %
25.12.2020 15:16 5,4 C 4,4 C 3,8 C 84 % 1023,9 hPa 0,0 l/m 0 min 0 min 23 W/m 0,0 km/h (0 Bft) 100,00 %
25.12.2020 15:18 5,3 C 4,4 C 3,3 C 84 % 1024,0 hPa 0,0 l/m 0 min 0 min 22 W/m 0,0 km/h (0 Bft) 100,00 %
25.12.2020 15:20 5,3 C 4,4 C 3,3 C 84 % 1024,0 hPa 0,0 l/m 0 min 0 min 23 W/m 3,2 km/h (1 Bft) 100,00 %
25.12.2020 15:22 5,2 C 4,4 C 3,3 C 84 % 1024,0 hPa 0,0 l/m 0 min 0 min 21 W/m 0,0 km/h (0 Bft) 100,00 %
25.12.2020 15:24 5,1 C 4,4 C 3,3 C 84 % 1024,0 hPa 0,0 l/m 0 min 0 min 19 W/m 16,1 km/h (3 Bft) 100,00 %
25.12.2020 15:26 5,1 C 3,9 C 3,3 C 84 % 1024,0 hPa 0,0 l/m 0 min 0 min 18 W/m 16,1 km/h (3 Bft) 100,00 %
25.12.2020 15:28 5,1 C 3,9 C 3,3 C 84 % 1024,0 hPa 0,0 l/m 0 min 0 min 18 W/m 0,0 km/h (0 Bft) 97,30 %
25.12.2020 15:30 5,0 C 3,9 C 3,3 C 85 % 1024,1 hPa 0,0 l/m 0 min 0 min 18 W/m 0,0 km/h (0 Bft) 100,00 %
25.12.2020 15:32 5,0 C 3,9 C 3,3 C 85 % 1024,0 hPa 0,0 l/m 0 min 0 min 20 W/m 0,0 km/h (0 Bft) 100,00 %
25.12.2020 15:34 5,0 C 4,4 C 3,3 C 85 % 1024,1 hPa 0,0 l/m 0 min 0 min 27 W/m 19,3 km/h (3 Bft) 100,00 %
25.12.2020 15:36 4,9 C 4,4 C 3,3 C 85 % 1024,0 hPa 0,0 l/m 0 min 0 min 36 W/m 0,0 km/h (0 Bft) 100,00 %
25.12.2020 15:38 4,9 C 5,0 C 3,3 C 85 % 1024,0 hPa 0,0 l/m 0 min 0 min 49 W/m 6,4 km/h (2 Bft) 100,00 %
25.12.2020 15:40 4,9 C 5,6 C 3,3 C 85 % 1024,1 hPa 0,0 l/m 0 min 0 min 47 W/m 16,1 km/h (3 Bft) 100,00 %
25.12.2020 15:42 4,8 C 5,6 C 3,3 C 86 % 1024,1 hPa 0,0 l/m 0 min 0 min 41 W/m 9,7 km/h (2 Bft) 97,87 %
25.12.2020 15:44 4,8 C 5,6 C 3,3 C 86 % 1024,1 hPa 0,0 l/m 0 min 0 min 39 W/m 0,0 km/h (0 Bft) 100,00 %
25.12.2020 15:46 4,8 C 5,0 C 3,3 C 86 % 1024,1 hPa 0,0 l/m 2 min 0 min 48 W/m 0,0 km/h (0 Bft) 100,00 %
25.12.2020 15:48 4,8 C 5,0 C 3,3 C 86 % 1024,1 hPa 0,0 l/m 2 min 0 min 56 W/m 0,0 km/h (0 Bft) 100,00 %
25.12.2020 15:50 4,8 C 5,0 C 3,3 C 86 % 1024,1 hPa 0,0 l/m 2 min 0 min 46 W/m 0,0 km/h (0 Bft) 100,00 %
25.12.2020 15:52 4,8 C 5,0 C 3,3 C 86 % 1024,1 hPa 0,0 l/m 0 min 0 min 36 W/m 0,0 km/h (0 Bft) 100,00 %
25.12.2020 15:54 4,8 C 4,4 C 3,3 C 87 % 1024,1 hPa 0,0 l/m 0 min 0 min 30 W/m 3,2 km/h (1 Bft) 97,87 %
25.12.2020 15:56 4,8 C 4,4 C 3,3 C 87 % 1024,2 hPa 0,0 l/m 0 min 0 min 24 W/m 0,0 km/h (0 Bft) 97,37 %
25.12.2020 15:58 4,8 C 4,4 C 3,3 C 87 % 1024,2 hPa 0,0 l/m 0 min 0 min 18 W/m 0,0 km/h (0 Bft) 100,00 %
25.12.2020 16:00 4,8 C 4,4 C 3,3 C 87 % 1024,2 hPa 0,0 l/m 0 min 0 min 15 W/m 12,9 km/h (3 Bft) 100,00 %
25.12.2020 16:02 4,8 C 4,4 C 3,3 C 88 % 1024,2 hPa 0,0 l/m 0 min 0 min 14 W/m 12,9 km/h (3 Bft) 100,00 %
25.12.2020 16:04 4,8 C 3,9 C 3,3 C 88 % 1024,3 hPa 0,0 l/m 0 min 0 min 15 W/m 12,9 km/h (3 Bft) 97,87 %
25.12.2020 16:06 4,8 C 3,9 C 3,3 C 88 % 1024,3 hPa 0,0 l/m 0 min 0 min 14 W/m 16,1 km/h (3 Bft) 98,11 %
25.12.2020 16:08 4,8 C 3,9 C 2,7 C 88 % 1024,3 hPa 0,0 l/m 0 min 0 min 15 W/m 6,4 km/h (2 Bft) 96,00 %
25.12.2020 16:10 4,8 C 3,9 C 2,7 C 88 % 1024,3 hPa 0,0 l/m 0 min 0 min 16 W/m 9,7 km/h (2 Bft) 97,87 %
25.12.2020 16:12 4,8 C 3,9 C 2,7 C 88 % 1024,3 hPa 0,0 l/m 0 min 0 min 14 W/m 16,1 km/h (3 Bft) 97,30 %
25.12.2020 16:14 4,7 C 3,9 C 2,7 C 88 % 1024,4 hPa 0,0 l/m 0 min 0 min 12 W/m 12,9 km/h (3 Bft) 97,87 %
25.12.2020 16:16 4,7 C 3,9 C 2,7 C 88 % 1024,4 hPa 0,0 l/m 0 min 0 min 11 W/m 12,9 km/h (3 Bft) 97,87 %
25.12.2020 16:18 4,6 C 3,9 C 2,7 C 89 % 1024,5 hPa 0,0 l/m 0 min 0 min 11 W/m 12,9 km/h (3 Bft) 98,11 %
25.12.2020 16:20 4,6 C 3,9 C 2,7 C 89 % 1024,6 hPa 0,0 l/m 0 min 0 min 12 W/m 6,4 km/h (2 Bft) 98,00 %
25.12.2020 16:22 4,6 C 3,3 C 2,7 C 89 % 1024,6 hPa 0,0 l/m 0 min 0 min 10 W/m 3,2 km/h (1 Bft) 97,30 %
25.12.2020 16:24 4,5 C 3,3 C 2,7 C 89 % 1024,6 hPa 0,0 l/m 0 min 0 min 7 W/m 0,0 km/h (0 Bft) 97,87 %
25.12.2020 16:26 4,5 C 3,3 C 2,7 C 89 % 1024,7 hPa 0,0 l/m 0 min 0 min 7 W/m 0,0 km/h (0 Bft) 97,87 %
25.12.2020 16:28 4,5 C 3,3 C 2,7 C 89 % 1024,6 hPa 0,0 l/m 0 min 0 min 6 W/m 0,0 km/h (0 Bft) 95,65 %
25.12.2020 16:30 4,4 C 3,3 C 2,2 C 89 % 1024,6 hPa 0,0 l/m 0 min 0 min 5 W/m 0,0 km/h (0 Bft) 98,00 %
25.12.2020 16:32 4,4 C 3,3 C 2,2 C 89 % 1024,6 hPa 0,0 l/m 0 min 0 min 5 W/m 0,0 km/h (0 Bft) 97,87 %
25.12.2020 16:34 4,4 C 3,3 C 2,2 C 89 % 1024,6 hPa 0,0 l/m 0 min 0 min 1 W/m 0,0 km/h (0 Bft) 97,87 %
25.12.2020 16:36 4,3 C 3,3 C 2,2 C 89 % 1024,6 hPa 0,0 l/m 0 min 0 min 0 W/m 0,0 km/h (0 Bft) 97,73 %
25.12.2020 16:38 4,3 C 3,3 C 2,2 C 89 % 1024,6 hPa 0,0 l/m 0 min 0 min 0 W/m 0,0 km/h (0 Bft) 97,96 %
25.12.2020 16:40 4,3 C 3,3 C 2,2 C 89 % 1024,6 hPa 0,0 l/m 0 min 0 min 0 W/m 0,0 km/h (0 Bft) 97,87 %
25.12.2020 16:42 4,2 C 3,3 C 2,2 C 89 % 1024,6 hPa 0,0 l/m 0 min 0 min 0 W/m 0,0 km/h (0 Bft) 95,74 %
25.12.2020 16:44 4,1 C 3,3 C 2,2 C 89 % 1024,6 hPa 0,0 l/m 0 min 0 min 0 W/m 0,0 km/h (0 Bft) 100,00 %
25.12.2020 16:46 4,1 C 2,8 C 2,2 C 89 % 1024,6 hPa 0,0 l/m 0 min 0 min 0 W/m 0,0 km/h (0 Bft) 95,45 %
25.12.2020 16:48 4,1 C 2,8 C 2,2 C 89 % 1024,7 hPa 0,0 l/m 0 min 0 min 0 W/m 0,0 km/h (0 Bft) 98,00 %
25.12.2020 16:50 4,0 C 2,8 C 2,2 C 89 % 1024,7 hPa 0,0 l/m 0 min 0 min 0 W/m 0,0 km/h (0 Bft) 97,83 %
25.12.2020 16:52 4,0 C 2,8 C 2,2 C 89 % 1024,7 hPa 0,0 l/m 0 min 0 min 0 W/m 0,0 km/h (0 Bft) 100,00 %
25.12.2020 16:54 4,0 C 2,8 C 2,2 C 89 % 1024,7 hPa 0,0 l/m 0 min 0 min 0 W/m 0,0 km/h (0 Bft) 100,00 %
25.12.2020 16:56 3,9 C 2,8 C 1,6 C 89 % 1024,7 hPa 0,0 l/m 0 min 0 min 0 W/m 0,0 km/h (0 Bft) 97,73 %
25.12.2020 16:58 3,9 C 2,8 C 1,6 C 89 % 1024,7 hPa 0,0 l/m 0 min 0 min 0 W/m 0,0 km/h (0 Bft) 98,00 %
25.12.2020 17:00 3,9 C 2,8 C 1,6 C 89 % 1024,7 hPa 0,0 l/m 0 min 0 min 0 W/m 3,2 km/h (1 Bft) 100,00 %
25.12.2020 17:02 3,9 C 2,8 C 1,6 C 89 % 1024,7 hPa 0,0 l/m 0 min 0 min 0 W/m 0,0 km/h (0 Bft) 100,00 %
25.12.2020 17:04 3,8 C 2,8 C 1,6 C 89 % 1024,8 hPa 0,0 l/m 0 min 0 min 0 W/m 0,0 km/h (0 Bft) 100,00 %
25.12.2020 17:06 3,8 C 2,8 C 1,6 C 89 % 1024,7 hPa 0,0 l/m 0 min 0 min 0 W/m 0,0 km/h (0 Bft) 100,00 %
25.12.2020 17:08 3,7 C 2,8 C 1,6 C 89 % 1024,7 hPa 0,0 l/m 0 min 0 min 0 W/m 0,0 km/h (0 Bft) 100,00 %
25.12.2020 17:10 3,7 C 2,8 C 1,6 C 89 % 1024,8 hPa 0,0 l/m 0 min 0 min 0 W/m 0,0 km/h (0 Bft) 100,00 %
25.12.2020 17:12 3,6 C 2,8 C 1,6 C 89 % 1024,8 hPa 0,0 l/m 0 min 0 min 0 W/m 0,0 km/h (0 Bft) 100,00 %
25.12.2020 17:14 3,6 C 2,8 C 1,6 C 89 % 1024,8 hPa 0,0 l/m 0 min 0 min 0 W/m 0,0 km/h (0 Bft) 100,00 %
25.12.2020 17:16 3,6 C 2,2 C 1,6 C 89 % 1024,8 hPa 0,0 l/m 0 min 0 min 0 W/m 0,0 km/h (0 Bft) 98,00 %
25.12.2020 17:18 3,6 C 2,2 C 1,6 C 89 % 1024,8 hPa 0,0 l/m 0 min 0 min 0 W/m 0,0 km/h (0 Bft) 95,74 %
25.12.2020 17:20 3,5 C 2,2 C 1,6 C 89 % 1024,9 hPa 0,0 l/m 0 min 0 min 0 W/m 0,0 km/h (0 Bft) 97,87 %
25.12.2020 17:22 3,5 C 2,2 C 1,1 C 89 % 1024,9 hPa 0,0 l/m 0 min 0 min 0 W/m 0,0 km/h (0 Bft) 97,73 %
25.12.2020 17:24 3,5 C 2,2 C 1,1 C 89 % 1024,9 hPa 0,0 l/m 0 min 0 min 0 W/m 0,0 km/h (0 Bft) 100,00 %
25.12.2020 17:26 3,5 C 2,2 C 1,1 C 89 % 1024,9 hPa 0,0 l/m 0 min 0 min 0 W/m 0,0 km/h (0 Bft) 97,87 %
25.12.2020 17:28 3,4 C 2,2 C 1,1 C 89 % 1024,9 hPa 0,0 l/m 0 min 0 min 0 W/m 0,0 km/h (0 Bft) 97,83 %
25.12.2020 17:30 3,4 C 2,2 C 1,1 C 89 % 1025,0 hPa 0,0 l/m 0 min 0 min 0 W/m 0,0 km/h (0 Bft) 97,73 %
25.12.2020 17:32 3,4 C 2,2 C 1,1 C 89 % 1025,0 hPa 0,0 l/m 0 min 0 min 0 W/m 0,0 km/h (0 Bft) 97,87 %
25.12.2020 17:34 3,3 C 2,2 C 1,1 C 89 % 1025,0 hPa 0,0 l/m 0 min 0 min 0 W/m 0,0 km/h (0 Bft) 94,00 %
25.12.2020 17:36 3,3 C 2,2 C 1,1 C 89 % 1025,1 hPa 0,0 l/m 0 min 0 min 0 W/m 0,0 km/h (0 Bft) 97,83 %
25.12.2020 17:38 3,3 C 2,2 C 1,1 C 89 % 1025,0 hPa 0,0 l/m 0 min 0 min 0 W/m 0,0 km/h (0 Bft) 97,92 %
25.12.2020 17:40 3,2 C 2,2 C 1,1 C 89 % 1025,1 hPa 0,0 l/m 0 min 0 min 0 W/m 0,0 km/h (0 Bft) 97,83 %
25.12.2020 17:42 3,2 C 2,2 C 1,1 C 89 % 1025,0 hPa 0,0 l/m 0 min 0 min 0 W/m 0,0 km/h (0 Bft) 97,87 %
25.12.2020 17:44 3,1 C 2,2 C 1,1 C 89 % 1025,1 hPa 0,0 l/m 0 min 0 min 0 W/m 0,0 km/h (0 Bft) 97,87 %
25.12.2020 17:46 3,1 C 2,2 C 1,1 C 90 % 1025,1 hPa 0,0 l/m 0 min 0 min 0 W/m 0,0 km/h (0 Bft) 97,73 %
25.12.2020 17:48 3,1 C 1,7 C 1,1 C 90 % 1025,2 hPa 0,0 l/m 0 min 0 min 0 W/m 0,0 km/h (0 Bft) 97,96 %
25.12.2020 17:50 3,1 C 1,7 C 0,5 C 90 % 1025,2 hPa 0,0 l/m 0 min 0 min 0 W/m 0,0 km/h (0 Bft) 97,87 %
25.12.2020 17:52 3,0 C 1,7 C 0,5 C 90 % 1025,2 hPa 0,0 l/m 0 min 0 min 0 W/m 0,0 km/h (0 Bft) 95,74 %
25.12.2020 17:54 3,0 C 1,7 C 1,1 C 90 % 1025,1 hPa 0,0 l/m 0 min 0 min 0 W/m 0,0 km/h (0 Bft) 97,73 %
25.12.2020 17:56 3,0 C 1,7 C 1,1 C 90 % 1025,2 hPa 0,0 l/m 0 min 0 min 0 W/m 0,0 km/h (0 Bft) 98,00 %
25.12.2020 17:58 3,0 C 1,7 C 0,5 C 90 % 1025,1 hPa 0,0 l/m 0 min 0 min 0 W/m 0,0 km/h (0 Bft) 97,87 %
25.12.2020 18:00 2,9 C 1,7 C 1,1 C 90 % 1025,1 hPa 0,0 l/m 0 min 0 min 0 W/m 0,0 km/h (0 Bft) 100,00 %
25.12.2020 18:02 2,9 C 2,2 C 1,1 C 90 % 1025,1 hPa 0,0 l/m 0 min 0 min 0 W/m 0,0 km/h (0 Bft) 97,67 %
25.12.2020 18:04 2,9 C 1,7 C 0,5 C 90 % 1025,2 hPa 0,0 l/m 0 min 0 min 0 W/m 0,0 km/h (0 Bft) 97,87 %
25.12.2020 18:08 2,9 C 1,7 C 0,5 C 91 % 1025,2 hPa 0,0 l/m 0 min 0 min 0 W/m 0,0 km/h (0 Bft) 96,91 %
25.12.2020 18:10 2,9 C 1,7 C 0,5 C 90 % 1025,2 hPa 0,0 l/m 0 min 0 min 0 W/m 0,0 km/h (0 Bft) 97,87 %
25.12.2020 18:12 2,8 C 1,7 C 0,5 C 90 % 1025,3 hPa 0,0 l/m 0 min 0 min 0 W/m 0,0 km/h (0 Bft) 100,00 %
25.12.2020 18:14 2,8 C 1,7 C 0,5 C 91 % 1025,3 hPa 0,0 l/m 0 min 0 min 0 W/m 0,0 km/h (0 Bft) 97,37 %
25.12.2020 18:16 2,8 C 1,7 C 0,5 C 91 % 1025,3 hPa 0,0 l/m 0 min 0 min 0 W/m 0,0 km/h (0 Bft) 100,00 %
25.12.2020 18:18 2,8 C 1,7 C 0,5 C 91 % 1025,2 hPa 0,0 l/m 0 min 0 min 0 W/m 0,0 km/h (0 Bft) 100,00 %
25.12.2020 18:20 2,7 C 1,7 C 0,5 C 91 % 1025,3 hPa 0,0 l/m 0 min 0 min 0 W/m 0,0 km/h (0 Bft) 98,15 %
25.12.2020 18:22 2,7 C 1,7 C 0,5 C 91 % 1025,3 hPa 0,0 l/m 0 min 0 min 0 W/m 0,0 km/h (0 Bft) 100,00 %
25.12.2020 18:24 2,7 C 1,7 C 0,5 C 91 % 1025,3 hPa 0,0 l/m 0 min 0 min 0 W/m 0,0 km/h (0 Bft) 97,96 %
25.12.2020 18:26 2,6 C 1,7 C 0,5 C 91 % 1025,2 hPa 0,0 l/m 0 min 0 min 0 W/m 0,0 km/h (0 Bft) 97,83 %
25.12.2020 18:28 2,6 C 1,7 C 0,5 C 91 % 1025,3 hPa 0,0 l/m 0 min 0 min 0 W/m 0,0 km/h (0 Bft) 98,15 %
25.12.2020 18:30 2,6 C 1,7 C 0,5 C 91 % 1025,3 hPa 0,0 l/m 0 min 0 min 0 W/m 0,0 km/h (0 Bft) 97,37 %
25.12.2020 18:32 2,6 C 1,7 C 0,5 C 91 % 1025,3 hPa 0,0 l/m 0 min 0 min 0 W/m 0,0 km/h (0 Bft) 100,00 %
25.12.2020 18:34 2,5 C 1,7 C 0,5 C 92 % 1025,3 hPa 0,0 l/m 0 min 0 min 0 W/m 0,0 km/h (0 Bft) 100,00 %
25.12.2020 18:36 2,5 C 1,7 C 0,5 C 92 % 1025,3 hPa 0,0 l/m 0 min 0 min 0 W/m 0,0 km/h (0 Bft) 100,00 %
25.12.2020 18:38 2,5 C 1,7 C 0,5 C 92 % 1025,3 hPa 0,0 l/m 0 min 0 min 0 W/m 0,0 km/h (0 Bft) 98,11 %
25.12.2020 18:40 2,5 C 1,1 C 0,5 C 92 % 1025,3 hPa 0,0 l/m 0 min 0 min 0 W/m 0,0 km/h (0 Bft) 97,87 %
25.12.2020 18:42 2,5 C 1,1 C 0,5 C 92 % 1025,3 hPa 0,0 l/m 0 min 0 min 0 W/m 0,0 km/h (0 Bft) 97,37 %
25.12.2020 18:44 2,4 C 1,1 C 0,5 C 92 % 1025,3 hPa 0,0 l/m 0 min 0 min 0 W/m 0,0 km/h (0 Bft) 95,92 %
25.12.2020 18:46 2,4 C 1,1 C 0,5 C 92 % 1025,3 hPa 0,0 l/m 0 min 0 min 0 W/m 0,0 km/h (0 Bft) 97,87 %
25.12.2020 18:48 2,4 C 1,1 C 0,5 C 92 % 1025,3 hPa 0,0 l/m 0 min 0 min 0 W/m 0,0 km/h (0 Bft) 97,62 %
25.12.2020 18:50 2,4 C 1,1 C 0,5 C 92 % 1025,4 hPa 0,0 l/m 0 min 0 min 0 W/m 0,0 km/h (0 Bft) 97,96 %
25.12.2020 18:52 2,3 C 1,1 C 0,5 C 92 % 1025,3 hPa 0,0 l/m 0 min 0 min 0 W/m 0,0 km/h (0 Bft) 97,96 %
25.12.2020 18:54 2,3 C 1,1 C 0,5 C 92 % 1025,4 hPa 0,0 l/m 0 min 0 min 0 W/m 0,0 km/h (0 Bft) 97,87 %
25.12.2020 18:56 2,3 C 1,1 C 0,5 C 92 % 1025,4 hPa 0,0 l/m 0 min 0 min 0 W/m 0,0 km/h (0 Bft) 96,30 %
25.12.2020 18:58 2,3 C 1,1 C 0,5 C 92 % 1025,4 hPa 0,0 l/m 0 min 0 min 0 W/m 0,0 km/h (0 Bft) 97,30 %
25.12.2020 19:00 2,2 C 1,1 C 0,5 C 92 % 1025,4 hPa 0,0 l/m 0 min 0 min 0 W/m 0,0 km/h (0 Bft) 97,96 %
25.12.2020 19:02 2,2 C 1,1 C 0,5 C 92 % 1025,4 hPa 0,0 l/m 0 min 0 min 0 W/m 0,0 km/h (0 Bft) 97,87 %
25.12.2020 19:04 2,1 C 1,1 C -0,1 C 92 % 1025,4 hPa 0,0 l/m 0 min 0 min 0 W/m 0,0 km/h (0 Bft) 98,15 %
25.12.2020 19:06 2,1 C 1,1 C 0,5 C 92 % 1025,4 hPa 0,0 l/m 0 min 0 min 0 W/m 0,0 km/h (0 Bft) 100,00 %
25.12.2020 19:08 2,1 C 1,1 C -0,1 C 92 % 1025,4 hPa 0,0 l/m 0 min 0 min 0 W/m 0,0 km/h (0 Bft) 97,96 %
25.12.2020 19:10 2,0 C 1,1 C -0,1 C 92 % 1025,4 hPa 0,0 l/m 0 min 0 min 0 W/m 0,0 km/h (0 Bft) 97,87 %
25.12.2020 19:12 2,0 C 1,1 C -0,1 C 92 % 1025,4 hPa 0,0 l/m 0 min 0 min 0 W/m 0,0 km/h (0 Bft) 97,83 %
25.12.2020 19:14 2,0 C 1,1 C -0,1 C 93 % 1025,4 hPa 0,0 l/m 0 min 0 min 0 W/m 0,0 km/h (0 Bft) 95,74 %
25.12.2020 19:16 2,0 C 1,1 C -0,1 C 93 % 1025,5 hPa 0,0 l/m 0 min 0 min 0 W/m 0,0 km/h (0 Bft) 97,67 %
25.12.2020 19:18 2,0 C 1,1 C -0,1 C 93 % 1025,5 hPa 0,0 l/m 0 min 0 min 0 W/m 0,0 km/h (0 Bft) 97,96 %
25.12.2020 19:20 2,0 C 1,1 C -0,1 C 93 % 1025,5 hPa 0,0 l/m 0 min 0 min 0 W/m 0,0 km/h (0 Bft) 100,00 %
25.12.2020 19:22 1,9 C 1,1 C -0,1 C 93 % 1025,5 hPa 0,0 l/m 0 min 0 min 0 W/m 0,0 km/h (0 Bft) 100,00 %
25.12.2020 19:24 1,9 C 1,1 C -0,1 C 93 % 1025,5 hPa 0,0 l/m 0 min 0 min 0 W/m 0,0 km/h (0 Bft) 100,00 %
25.12.2020 19:26 1,9 C 1,1 C -0,1 C 93 % 1025,5 hPa 0,0 l/m 0 min 0 min 0 W/m 0,0 km/h (0 Bft) 100,00 %
25.12.2020 19:28 1,9 C 1,1 C 0,5 C 93 % 1025,5 hPa 0,0 l/m 0 min 0 min 0 W/m 0,0 km/h (0 Bft) 100,00 %
25.12.2020 19:30 1,9 C 1,1 C 0,5 C 93 % 1025,6 hPa 0,0 l/m 0 min 0 min 0 W/m 0,0 km/h (0 Bft) 97,96 %
25.12.2020 19:32 1,9 C 1,1 C 0,5 C 93 % 1025,5 hPa 0,0 l/m 0 min 0 min 0 W/m 0,0 km/h (0 Bft) 100,00 %
25.12.2020 19:34 1,9 C 1,1 C 0,5 C 93 % 1025,5 hPa 0,0 l/m 0 min 0 min 0 W/m 0,0 km/h (0 Bft) 97,87 %
25.12.2020 19:36 1,9 C 1,1 C 0,5 C 93 % 1025,6 hPa 0,0 l/m 0 min 0 min 0 W/m 0,0 km/h (0 Bft) 100,00 %
25.12.2020 19:38 1,9 C 1,1 C 0,5 C 93 % 1025,5 hPa 0,0 l/m 0 min 0 min 0 W/m 0,0 km/h (0 Bft) 100,00 %
25.12.2020 19:40 1,9 C 1,1 C 0,5 C 93 % 1025,5 hPa 0,0 l/m 0 min 0 min 0 W/m 0,0 km/h (0 Bft) 100,00 %
25.12.2020 19:42 1,8 C 1,1 C 0,5 C 93 % 1025,5 hPa 0,0 l/m 0 min 0 min 0 W/m 0,0 km/h (0 Bft) 95,74 %
25.12.2020 19:44 1,8 C 1,1 C 0,5 C 93 % 1025,5 hPa 0,0 l/m 0 min 0 min 0 W/m 0,0 km/h (0 Bft) 97,83 %
25.12.2020 19:46 1,8 C 1,1 C 0,5 C 93 % 1025,5 hPa 0,0 l/m 0 min 0 min 0 W/m 0,0 km/h (0 Bft) 100,00 %
25.12.2020 19:48 1,8 C 1,1 C 0,5 C 93 % 1025,5 hPa 0,0 l/m 0 min 0 min 0 W/m 0,0 km/h (0 Bft) 97,92 %
25.12.2020 19:50 1,8 C 1,1 C 0,5 C 93 % 1025,5 hPa 0,0 l/m 0 min 0 min 0 W/m 0,0 km/h (0 Bft) 100,00 %
25.12.2020 19:52 1,8 C 1,1 C 0,5 C 93 % 1025,5 hPa 0,0 l/m 0 min 0 min 0 W/m 0,0 km/h (0 Bft) 100,00 %
25.12.2020 19:54 1,8 C 1,1 C 0,5 C 93 % 1025,5 hPa 0,0 l/m 0 min 0 min 0 W/m 0,0 km/h (0 Bft) 97,92 %
25.12.2020 19:56 1,8 C 1,1 C 0,5 C 93 % 1025,5 hPa 0,0 l/m 0 min 0 min 0 W/m 0,0 km/h (0 Bft) 100,00 %
25.12.2020 19:58 1,8 C 1,1 C 0,5 C 93 % 1025,6 hPa 0,0 l/m 0 min 0 min 0 W/m 0,0 km/h (0 Bft) 100,00 %
25.12.2020 20:00 1,8 C 1,1 C 0,5 C 93 % 1025,6 hPa 0,0 l/m 0 min 0 min 0 W/m 0,0 km/h (0 Bft) 100,00 %
25.12.2020 20:02 1,8 C 1,1 C 0,5 C 93 % 1025,6 hPa 0,0 l/m 0 min 0 min 0 W/m 0,0 km/h (0 Bft) 97,87 %
25.12.2020 20:04 1,8 C 1,1 C 0,5 C 94 % 1025,5 hPa 0,0 l/m 0 min 0 min 0 W/m 0,0 km/h (0 Bft) 100,00 %
25.12.2020 20:06 1,8 C 1,1 C 0,5 C 94 % 1025,5 hPa 0,0 l/m 0 min 0 min 0 W/m 0,0 km/h (0 Bft) 100,00 %
25.12.2020 20:08 1,8 C 1,1 C 0,5 C 94 % 1025,5 hPa 0,0 l/m 0 min 0 min 0 W/m 0,0 km/h (0 Bft) 100,00 %
25.12.2020 20:10 1,8 C 1,7 C 0,5 C 94 % 1025,5 hPa 0,0 l/m 0 min 0 min 0 W/m 0,0 km/h (0 Bft) 100,00 %
25.12.2020 20:12 1,8 C 1,7 C 0,5 C 94 % 1025,5 hPa 0,0 l/m 0 min 0 min 0 W/m 0,0 km/h (0 Bft) 100,00 %
25.12.2020 20:14 1,8 C 1,7 C 0,5 C 94 % 1025,6 hPa 0,0 l/m 0 min 0 min 0 W/m 0,0 km/h (0 Bft) 100,00 %
25.12.2020 20:16 1,8 C 1,7 C 0,5 C 94 % 1025,5 hPa 0,0 l/m 0 min 0 min 0 W/m 0,0 km/h (0 Bft) 97,87 %
25.12.2020 20:18 1,8 C 1,7 C 0,5 C 94 % 1025,6 hPa 0,0 l/m 0 min 0 min 0 W/m 0,0 km/h (0 Bft) 100,00 %
25.12.2020 20:20 1,8 C 1,7 C 0,5 C 94 % 1025,5 hPa 0,0 l/m 0 min 0 min 0 W/m 0,0 km/h (0 Bft) 97,87 %
25.12.2020 20:22 1,9 C 1,7 C 0,5 C 94 % 1025,5 hPa 0,0 l/m 0 min 0 min 0 W/m 0,0 km/h (0 Bft) 97,87 %
25.12.2020 20:24 1,9 C 1,7 C 1,1 C 94 % 1025,5 hPa 0,0 l/m 0 min 0 min 0 W/m 0,0 km/h (0 Bft) 100,00 %
25.12.2020 20:26 1,9 C 1,7 C 1,1 C 94 % 1025,6 hPa 0,0 l/m 0 min 0 min 0 W/m 0,0 km/h (0 Bft) 97,87 %
25.12.2020 20:28 1,9 C 1,7 C 1,1 C 94 % 1025,5 hPa 0,0 l/m 0 min 0 min 0 W/m 0,0 km/h (0 Bft) 93,62 %
25.12.2020 20:30 1,9 C 1,7 C 1,1 C 94 % 1025,5 hPa 0,0 l/m 0 min 0 min 0 W/m 0,0 km/h (0 Bft) 95,65 %
25.12.2020 20:32 1,9 C 1,7 C 1,1 C 94 % 1025,5 hPa 0,0 l/m 0 min 0 min 0 W/m 0,0 km/h (0 Bft) 97,83 %
25.12.2020 20:34 2,0 C 1,7 C 1,1 C 95 % 1025,5 hPa 0,0 l/m 0 min 0 min 0 W/m 0,0 km/h (0 Bft) 97,96 %
25.12.2020 20:36 1,9 C 1,7 C 1,1 C 95 % 1025,5 hPa 0,0 l/m 0 min 0 min 0 W/m 0,0 km/h (0 Bft) 97,87 %
25.12.2020 20:38 2,0 C 1,7 C 0,5 C 95 % 1025,5 hPa 0,0 l/m 0 min 0 min 0 W/m 0,0 km/h (0 Bft) 97,62 %
25.12.2020 20:40 2,0 C 1,7 C 0,5 C 95 % 1025,4 hPa 0,0 l/m 0 min 0 min 0 W/m 0,0 km/h (0 Bft) 95,74 %
25.12.2020 20:42 2,0 C 1,7 C 0,5 C 95 % 1025,5 hPa 0,0 l/m 0 min 0 min 0 W/m 0,0 km/h (0 Bft) 95,92 %
25.12.2020 20:44 2,0 C 1,7 C 0,5 C 95 % 1025,5 hPa 0,0 l/m 0 min 0 min 0 W/m 0,0 km/h (0 Bft) 97,87 %
25.12.2020 20:46 2,0 C 1,7 C 0,5 C 95 % 1025,6 hPa 0,0 l/m 0 min 0 min 0 W/m 0,0 km/h (0 Bft) 93,62 %
25.12.2020 20:48 2,0 C 1,7 C 1,1 C 95 % 1025,7 hPa 0,0 l/m 0 min 0 min 0 W/m 0,0 km/h (0 Bft) 95,74 %
25.12.2020 20:50 2,0 C 1,7 C 1,1 C 95 % 1025,7 hPa 0,0 l/m 0 min 0 min 0 W/m 0,0 km/h (0 Bft) 100,00 %
25.12.2020 20:52 2,0 C 1,7 C 1,1 C 95 % 1025,7 hPa 0,0 l/m 0 min 0 min 0 W/m 0,0 km/h (0 Bft) 95,74 %
25.12.2020 20:54 2,0 C 1,7 C 1,1 C 95 % 1025,6 hPa 0,0 l/m 0 min 0 min 0 W/m 0,0 km/h (0 Bft) 97,83 %
25.12.2020 20:56 2,0 C 1,7 C 1,1 C 95 % 1025,7 hPa 0,0 l/m 0 min 0 min 0 W/m 0,0 km/h (0 Bft) 97,87 %
25.12.2020 20:58 2,0 C 1,7 C 1,1 C 95 % 1025,7 hPa 0,0 l/m 0 min 0 min 0 W/m 0,0 km/h (0 Bft) 95,74 %
25.12.2020 21:00 2,0 C 1,7 C 1,1 C 95 % 1025,7 hPa 0,0 l/m 0 min 0 min 0 W/m 0,0 km/h (0 Bft) 97,87 %
25.12.2020 21:02 2,0 C 1,7 C 1,1 C 95 % 1025,6 hPa 0,0 l/m 0 min 0 min 0 W/m 0,0 km/h (0 Bft) 91,49 %
25.12.2020 21:04 2,0 C 1,7 C 0,5 C 95 % 1025,7 hPa 0,0 l/m 0 min 0 min 0 W/m 0,0 km/h (0 Bft) 95,65 %
25.12.2020 21:06 2,0 C 1,7 C 0,5 C 95 % 1025,7 hPa 0,0 l/m 0 min 0 min 0 W/m 0,0 km/h (0 Bft) 95,74 %
25.12.2020 21:08 2,0 C 1,7 C 0,5 C 95 % 1025,7 hPa 0,0 l/m 0 min 0 min 0 W/m 0,0 km/h (0 Bft) 94,44 %
25.12.2020 21:10 2,0 C 1,7 C 0,5 C 95 % 1025,7 hPa 0,0 l/m 0 min 0 min 0 W/m 0,0 km/h (0 Bft) 95,00 %
25.12.2020 21:12 2,0 C 1,7 C 0,5 C 95 % 1025,7 hPa 0,0 l/m 0 min 0 min 0 W/m 0,0 km/h (0 Bft) 93,62 %
25.12.2020 21:14 2,0 C 1,7 C 0,5 C 95 % 1025,7 hPa 0,0 l/m 0 min 0 min 0 W/m 0,0 km/h (0 Bft) 97,87 %
25.12.2020 21:16 2,0 C 1,7 C 1,1 C 95 % 1025,7 hPa 0,0 l/m 0 min 0 min 0 W/m 0,0 km/h (0 Bft) 97,87 %
25.12.2020 21:18 2,0 C 1,7 C 1,1 C 95 % 1025,7 hPa 0,0 l/m 0 min 0 min 0 W/m 0,0 km/h (0 Bft) 95,65 %
25.12.2020 21:20 2,0 C 1,7 C 1,1 C 95 % 1025,7 hPa 0,0 l/m 0 min 0 min 0 W/m 0,0 km/h (0 Bft) 95,74 %
25.12.2020 21:22 2,0 C 1,7 C 1,1 C 95 % 1025,6 hPa 0,0 l/m 0 min 0 min 0 W/m 0,0 km/h (0 Bft) 95,74 %
25.12.2020 21:24 2,0 C 1,7 C 1,1 C 95 % 1025,7 hPa 0,0 l/m 0 min 0 min 0 W/m 0,0 km/h (0 Bft) 95,74 %
25.12.2020 21:26 2,0 C 1,7 C 1,1 C 95 % 1025,7 hPa 0,0 l/m 0 min 0 min 0 W/m 0,0 km/h (0 Bft) 95,74 %
25.12.2020 21:28 2,0 C 1,7 C 1,1 C 95 % 1025,7 hPa 0,0 l/m 0 min 0 min 0 W/m 0,0 km/h (0 Bft) 95,74 %
25.12.2020 21:30 2,0 C 1,7 C 1,1 C 95 % 1025,7 hPa 0,0 l/m 0 min 0 min 0 W/m 0,0 km/h (0 Bft) 95,65 %
25.12.2020 21:32 2,0 C 1,7 C 1,1 C 95 % 1025,7 hPa 0,0 l/m 0 min 0 min 0 W/m 0,0 km/h (0 Bft) 95,74 %
25.12.2020 21:34 2,0 C 1,7 C 1,1 C 95 % 1025,7 hPa 0,0 l/m 0 min 0 min 0 W/m 0,0 km/h (0 Bft) 93,62 %
25.12.2020 21:36 2,0 C 1,7 C 1,1 C 95 % 1025,7 hPa 0,0 l/m 0 min 0 min 0 W/m 0,0 km/h (0 Bft) 95,74 %
25.12.2020 21:38 2,0 C 1,7 C 1,1 C 95 % 1025,7 hPa 0,0 l/m 0 min 0 min 0 W/m 0,0 km/h (0 Bft) 95,74 %
25.12.2020 21:40 2,0 C 1,7 C 1,1 C 95 % 1025,8 hPa 0,0 l/m 0 min 0 min 0 W/m 0,0 km/h (0 Bft) 93,62 %
25.12.2020 21:42 2,0 C 1,7 C 1,1 C 95 % 1025,8 hPa 0,0 l/m 0 min 0 min 0 W/m 0,0 km/h (0 Bft) 95,65 %
25.12.2020 21:44 2,0 C 1,7 C 1,1 C 95 % 1025,8 hPa 0,0 l/m 0 min 0 min 0 W/m 0,0 km/h (0 Bft) 97,87 %
25.12.2020 21:46 2,0 C 1,7 C 1,1 C 95 % 1025,8 hPa 0,0 l/m 0 min 0 min 0 W/m 0,0 km/h (0 Bft) 97,87 %
25.12.2020 21:48 2,0 C 1,7 C 1,1 C 95 % 1025,8 hPa 0,0 l/m 0 min 0 min 0 W/m 0,0 km/h (0 Bft) 97,87 %
25.12.2020 21:50 2,1 C 1,7 C 1,1 C 95 % 1025,8 hPa 0,0 l/m 0 min 0 min 0 W/m 0,0 km/h (0 Bft) 97,87 %
25.12.2020 21:52 2,1 C 1,7 C 1,1 C 95 % 1025,8 hPa 0,0 l/m 0 min 0 min 0 W/m 0,0 km/h (0 Bft) 97,87 %
25.12.2020 21:54 2,1 C 1,7 C 1,1 C 95 % 1025,8 hPa 0,0 l/m 0 min 0 min 0 W/m 0,0 km/h (0 Bft) 97,83 %
25.12.2020 21:56 2,1 C 1,7 C 1,1 C 95 % 1025,7 hPa 0,0 l/m 0 min 0 min 0 W/m 0,0 km/h (0 Bft) 97,87 %
25.12.2020 21:58 2,1 C 1,7 C 1,1 C 95 % 1025,7 hPa 0,0 l/m 0 min 0 min 0 W/m 0,0 km/h (0 Bft) 97,87 %
25.12.2020 22:00 2,1 C 1,7 C 1,1 C 95 % 1025,7 hPa 0,0 l/m 0 min 0 min 0 W/m 0,0 km/h (0 Bft) 95,74 %
25.12.2020 22:02 2,1 C 2,2 C 1,1 C 96 % 1025,6 hPa 0,0 l/m 0 min 0 min 0 W/m 0,0 km/h (0 Bft) 95,74 %
25.12.2020 22:04 2,2 C 2,2 C 1,1 C 96 % 1025,6 hPa 0,0 l/m 0 min 0 min 0 W/m 0,0 km/h (0 Bft) 95,65 %
25.12.2020 22:06 2,2 C 2,2 C 1,1 C 96 % 1025,5 hPa 0,0 l/m 0 min 0 min 0 W/m 0,0 km/h (0 Bft) 97,87 %
25.12.2020 22:08 2,2 C 2,2 C 1,1 C 96 % 1025,5 hPa 0,0 l/m 0 min 0 min 0 W/m 0,0 km/h (0 Bft) 97,87 %
25.12.2020 22:10 2,2 C 2,2 C 1,1 C 96 % 1025,4 hPa 0,0 l/m 0 min 0 min 0 W/m 0,0 km/h (0 Bft) 97,87 %
25.12.2020 22:12 2,3 C 2,2 C 1,1 C 96 % 1025,5 hPa 0,0 l/m 0 min 0 min 0 W/m 0,0 km/h (0 Bft) 95,74 %
25.12.2020 22:14 2,3 C 2,2 C 1,6 C 96 % 1025,5 hPa 0,0 l/m 0 min 0 min 0 W/m 0,0 km/h (0 Bft) 97,87 %
25.12.2020 22:16 2,3 C 2,2 C 1,6 C 96 % 1025,5 hPa 0,0 l/m 0 min 0 min 0 W/m 0,0 km/h (0 Bft) 97,83 %
25.12.2020 22:18 2,3 C 2,2 C 1,6 C 96 % 1025,4 hPa 0,0 l/m 0 min 0 min 0 W/m 0,0 km/h (0 Bft) 97,87 %
25.12.2020 22:20 2,3 C 2,2 C 1,1 C 96 % 1025,3 hPa 0,0 l/m 0 min 0 min 0 W/m 0,0 km/h (0 Bft) 97,87 %
25.12.2020 22:22 2,3 C 2,2 C 1,1 C 96 % 1025,3 hPa 0,0 l/m 0 min 0 min 0 W/m 0,0 km/h (0 Bft) 97,87 %
25.12.2020 22:24 2,3 C 2,2 C 1,1 C 96 % 1025,3 hPa 0,0 l/m 0 min 0 min 0 W/m 0,0 km/h (0 Bft) 97,87 %
25.12.2020 22:26 2,4 C 2,2 C 1,1 C 96 % 1025,3 hPa 0,0 l/m 0 min 0 min 0 W/m 0,0 km/h (0 Bft) 97,87 %
25.12.2020 22:28 2,4 C 2,2 C 1,1 C 96 % 1025,2 hPa 0,0 l/m 0 min 0 min 0 W/m 0,0 km/h (0 Bft) 97,83 %
25.12.2020 22:30 2,4 C 2,2 C 1,1 C 96 % 1025,3 hPa 0,0 l/m 0 min 0 min 0 W/m 0,0 km/h (0 Bft) 97,87 %
25.12.2020 22:32 2,4 C 2,2 C 1,1 C 96 % 1025,2 hPa 0,0 l/m 0 min 0 min 0 W/m 0,0 km/h (0 Bft) 97,14 %
25.12.2020 22:34 2,4 C 2,2 C 1,1 C 96 % 1025,2 hPa 0,0 l/m 0 min 0 min 0 W/m 0,0 km/h (0 Bft) 97,87 %
25.12.2020 22:36 2,4 C 1,7 C 1,1 C 96 % 1025,2 hPa 0,0 l/m 0 min 0 min 0 W/m 0,0 km/h (0 Bft) 97,87 %
25.12.2020 22:38 2,4 C 1,7 C 1,1 C 96 % 1025,2 hPa 0,0 l/m 0 min 0 min 0 W/m 0,0 km/h (0 Bft) 98,31 %
25.12.2020 22:40 2,4 C 1,7 C 1,1 C 96 % 1025,2 hPa 0,0 l/m 0 min 0 min 0 W/m 0,0 km/h (0 Bft) 97,83 %
25.12.2020 22:42 2,4 C 1,7 C 1,1 C 96 % 1025,2 hPa 0,0 l/m 0 min 0 min 0 W/m 0,0 km/h (0 Bft) 97,87 %
25.12.2020 22:44 2,4 C 1,7 C 1,1 C 96 % 1025,2 hPa 0,0 l/m 0 min 0 min 0 W/m 0,0 km/h (0 Bft) 95,74 %
25.12.2020 22:46 2,4 C 1,7 C 1,1 C 96 % 1025,3 hPa 0,0 l/m 0 min 0 min 0 W/m 0,0 km/h (0 Bft) 97,87 %
25.12.2020 22:48 2,4 C 1,7 C 1,1 C 96 % 1025,4 hPa 0,0 l/m 0 min 0 min 0 W/m 0,0 km/h (0 Bft) 97,87 %
25.12.2020 22:50 2,3 C 1,7 C 1,1 C 96 % 1025,5 hPa 0,0 l/m 0 min 0 min 0 W/m 0,0 km/h (0 Bft) 97,87 %
25.12.2020 22:52 2,3 C 1,7 C 1,1 C 96 % 1025,5 hPa 0,0 l/m 0 min 0 min 0 W/m 0,0 km/h (0 Bft) 97,83 %
25.12.2020 22:54 2,3 C 1,7 C 1,1 C 96 % 1025,5 hPa 0,0 l/m 0 min 0 min 0 W/m 0,0 km/h (0 Bft) 97,87 %
25.12.2020 22:56 2,3 C 1,7 C 1,1 C 96 % 1025,6 hPa 0,0 l/m 0 min 0 min 0 W/m 0,0 km/h (0 Bft) 97,87 %
25.12.2020 22:58 2,3 C 1,7 C 1,1 C 96 % 1025,6 hPa 0,0 l/m 0 min 0 min 0 W/m 0,0 km/h (0 Bft) 97,87 %
25.12.2020 23:00 2,3 C 1,7 C 1,1 C 96 % 1025,6 hPa 0,0 l/m 0 min 0 min 0 W/m 0,0 km/h (0 Bft) 97,87 %
25.12.2020 23:02 2,3 C 1,7 C 1,1 C 96 % 1025,6 hPa 0,0 l/m 0 min 0 min 0 W/m 0,0 km/h (0 Bft) 95,65 %
25.12.2020 23:04 2,3 C 1,7 C 1,1 C 96 % 1025,5 hPa 0,0 l/m 0 min 0 min 0 W/m 0,0 km/h (0 Bft) 93,62 %
25.12.2020 23:06 2,3 C 1,7 C 1,1 C 96 % 1025,5 hPa 0,0 l/m 0 min 0 min 0 W/m 0,0 km/h (0 Bft) 97,87 %
25.12.2020 23:08 2,3 C 1,7 C 1,1 C 96 % 1025,5 hPa 0,0 l/m 0 min 0 min 0 W/m 0,0 km/h (0 Bft) 97,87 %
25.12.2020 23:10 2,3 C 1,7 C 1,1 C 96 % 1025,5 hPa 0,0 l/m 0 min 0 min 0 W/m 0,0 km/h (0 Bft) 97,87 %
25.12.2020 23:12 2,3 C 1,7 C 1,1 C 96 % 1025,5 hPa 0,0 l/m 0 min 0 min 0 W/m 0,0 km/h (0 Bft) 97,87 %
25.12.2020 23:14 2,3 C 1,7 C 1,1 C 96 % 1025,5 hPa 0,0 l/m 0 min 0 min 0 W/m 0,0 km/h (0 Bft) 97,83 %
25.12.2020 23:16 2,3 C 1,7 C 1,1 C 96 % 1025,5 hPa 0,0 l/m 0 min 0 min 0 W/m 0,0 km/h (0 Bft) 95,74 %
25.12.2020 23:18 2,3 C 1,7 C 1,1 C 96 % 1025,5 hPa 0,0 l/m 0 min 0 min 0 W/m 0,0 km/h (0 Bft) 95,74 %
25.12.2020 23:20 2,3 C 1,7 C 1,1 C 96 % 1025,4 hPa 0,0 l/m 0 min 0 min 0 W/m 0,0 km/h (0 Bft) 93,62 %
25.12.2020 23:22 2,3 C 1,7 C 1,1 C 96 % 1025,4 hPa 0,0 l/m 0 min 0 min 0 W/m 0,0 km/h (0 Bft) 95,74 %
25.12.2020 23:24 2,3 C 1,7 C 1,1 C 96 % 1025,4 hPa 0,0 l/m 0 min 0 min 0 W/m 0,0 km/h (0 Bft) 93,62 %
25.12.2020 23:26 2,3 C 1,7 C 1,1 C 96 % 1025,4 hPa 0,0 l/m 0 min 0 min 0 W/m 0,0 km/h (0 Bft) 95,65 %
25.12.2020 23:28 2,3 C 1,7 C 1,1 C 96 % 1025,4 hPa 0,0 l/m 0 min 0 min 0 W/m 0,0 km/h (0 Bft) 95,74 %
25.12.2020 23:30 2,3 C 1,7 C 1,1 C 96 % 1025,4 hPa 0,0 l/m 0 min 0 min 0 W/m 0,0 km/h (0 Bft) 95,74 %
25.12.2020 23:32 2,3 C 1,7 C 1,1 C 96 % 1025,4 hPa 0,0 l/m 0 min 0 min 0 W/m 0,0 km/h (0 Bft) 95,74 %
25.12.2020 23:34 2,3 C 1,7 C 1,1 C 96 % 1025,4 hPa 0,0 l/m 0 min 0 min 0 W/m 0,0 km/h (0 Bft) 93,62 %
25.12.2020 23:36 2,3 C 1,7 C 1,1 C 96 % 1025,5 hPa 0,0 l/m 0 min 0 min 0 W/m 0,0 km/h (0 Bft) 93,62 %
25.12.2020 23:38 2,2 C 1,7 C 1,1 C 96 % 1025,5 hPa 0,0 l/m 0 min 0 min 0 W/m 0,0 km/h (0 Bft) 91,30 %
25.12.2020 23:40 2,2 C 1,7 C 1,1 C 96 % 1025,5 hPa 0,0 l/m 0 min 0 min 0 W/m 0,0 km/h (0 Bft) 93,62 %
25.12.2020 23:42 2,2 C 1,7 C 1,1 C 96 % 1025,5 hPa 0,0 l/m 0 min 0 min 0 W/m 0,0 km/h (0 Bft) 93,62 %
25.12.2020 23:44 2,1 C 1,1 C 0,5 C 96 % 1025,4 hPa 0,0 l/m 0 min 0 min 0 W/m 0,0 km/h (0 Bft) 93,62 %
25.12.2020 23:46 2,1 C 1,1 C 0,5 C 96 % 1025,4 hPa 0,0 l/m 0 min 0 min 0 W/m 0,0 km/h (0 Bft) 93,62 %
25.12.2020 23:48 2,1 C 1,1 C 0,5 C 96 % 1025,4 hPa 0,0 l/m 0 min 0 min 0 W/m 0,0 km/h (0 Bft) 93,48 %
25.12.2020 23:50 2,1 C 1,1 C 0,5 C 96 % 1025,5 hPa 0,0 l/m 0 min 0 min 0 W/m 0,0 km/h (0 Bft) 91,49 %
25.12.2020 23:52 2,1 C 1,1 C 0,5 C 96 % 1025,5 hPa 0,0 l/m 0 min 0 min 0 W/m 0,0 km/h (0 Bft) 91,49 %
25.12.2020 23:54 2,1 C 1,1 C 0,5 C 96 % 1025,6 hPa 0,0 l/m 0 min 0 min 0 W/m 0,0 km/h (0 Bft) 95,74 %
25.12.2020 23:56 2,0 C 1,1 C 0,5 C 96 % 1025,6 hPa 0,0 l/m 0 min 0 min 0 W/m 0,0 km/h (0 Bft) 89,36 %
25.12.2020 23:58 2,0 C 1,1 C 0,5 C 96 % 1025,7 hPa 0,0 l/m 0 min 0 min 0 W/m 0,0 km/h (0 Bft) 93,48 %
_ Min-Zeit 09:30 06:08 06:16 14:54 00:00 - - - - 00:00 14:56
Minimum _ 1,1 C 0,6 C -0,1 C 84 % 1017,8 hPa - - - - 0,0 km/h (0 Bft) 53,33 %
_ Max-Zeit 14:38 13:22 14:28 10:18 21:40 00:00 11:34 00:00 13:26 13:34 00:00
Maximum _ 6,0 C 10,6 C 9,4 C 98 % 1025,8 hPa 0,0 l/m 2 min 0 min 329 W/m 35,4 km/h
N (5 Bft)
100,00 %
Durchschnitt _ 3,0 C 2,9 C 2,1 C 94 % 1023,3 hPa #0,0 l/m #1:52 h #0 min. 89 W/m 2,9 km/h (1 Bft) 97,28 %
© 2020 W. Hausmann